<?xml version='1.0' encoding='UTF-8'?><gpx version="1.1" creator="JPX - https://github.com/jenetics/jpx" xmlns="http://www.topografix.com/GPX/1/1"><trk><trkseg><trkpt lat="-20.262795777529483" lon="44.308232131610204"><ele>1.9999999999999998</ele><time>2026-04-05T13:41:11.001Z</time></trkpt><trkpt lat="-20.262858569949753" lon="44.30818444021701"><ele>2.0</ele><time>2026-04-05T13:41:13.001Z</time></trkpt><trkpt lat="-20.262912737475006" lon="44.308250725458024"><ele>2.0</ele><time>2026-04-05T13:41:16Z</time></trkpt><trkpt lat="-20.26297767500645" lon="44.30831308175936"><ele>2.0</ele><time>2026-04-05T13:41:20Z</time></trkpt><trkpt lat="-20.26308254904614" lon="44.308348885564115"><ele>1.9999999999999998</ele><time>2026-04-05T13:41:23Z</time></trkpt><trkpt lat="-20.263165555132193" lon="44.30836791084451"><ele>2.0</ele><time>2026-04-05T13:41:24Z</time></trkpt><trkpt lat="-20.263250276540575" lon="44.30837770345999"><ele>2.0</ele><time>2026-04-05T13:41:25Z</time></trkpt><trkpt lat="-20.2633506513964" lon="44.30837381096319"><ele>2.0</ele><time>2026-04-05T13:41:26Z</time></trkpt><trkpt lat="-20.263456479464022" lon="44.308346336467515"><ele>2.0</ele><time>2026-04-05T13:41:27Z</time></trkpt><trkpt lat="-20.26357953897509" lon="44.30830173913098"><ele>2.0</ele><time>2026-04-05T13:41:28Z</time></trkpt><trkpt lat="-20.263715469037507" lon="44.30825925196874"><ele>2.0</ele><time>2026-04-05T13:41:29Z</time></trkpt><trkpt lat="-20.263850748533695" lon="44.30823858843475"><ele>2.0</ele><time>2026-04-05T13:41:30Z</time></trkpt><trkpt lat="-20.26395714538818" lon="44.30821732205373"><ele>2.0</ele><time>2026-04-05T13:41:31Z</time></trkpt><trkpt lat="-20.264056996332194" lon="44.30819860552442"><ele>2.0</ele><time>2026-04-05T13:41:32Z</time></trkpt><trkpt lat="-20.264157649369643" lon="44.30817217288178"><ele>2.25</ele><time>2026-04-05T13:41:33Z</time></trkpt><trkpt lat="-20.264283647189572" lon="44.308141675695694"><ele>2.5</ele><time>2026-04-05T13:41:33.999Z</time></trkpt><trkpt lat="-20.264426520537107" lon="44.30813709731242"><ele>2.75</ele><time>2026-04-05T13:41:34.999Z</time></trkpt><trkpt lat="-20.264548824850273" lon="44.308150764579814"><ele>3.0</ele><time>2026-04-05T13:41:35.999Z</time></trkpt><trkpt lat="-20.2646464148917" lon="44.308155880013956"><ele>3.0</ele><time>2026-04-05T13:41:36.999Z</time></trkpt><trkpt lat="-20.264747136989765" lon="44.30815216102724"><ele>3.0</ele><time>2026-04-05T13:41:37.999Z</time></trkpt><trkpt lat="-20.264856292719674" lon="44.30811197359715"><ele>3.0</ele><time>2026-04-05T13:41:38.999Z</time></trkpt><trkpt lat="-20.264986142339872" lon="44.3081126456313"><ele>3.0</ele><time>2026-04-05T13:41:39.999Z</time></trkpt><trkpt lat="-20.265112552891527" lon="44.308114532331814"><ele>3.2</ele><time>2026-04-05T13:41:40.999Z</time></trkpt><trkpt lat="-20.265235422907875" lon="44.30811615642973"><ele>3.4</ele><time>2026-04-05T13:41:41.999Z</time></trkpt><trkpt lat="-20.26535397894885" lon="44.30813703438414"><ele>3.6000000000000005</ele><time>2026-04-05T13:41:42.999Z</time></trkpt><trkpt lat="-20.265414824317098" lon="44.30815821235761"><ele>3.8000000000000003</ele><time>2026-04-05T13:41:43.999Z</time></trkpt><trkpt lat="-20.265479294364162" lon="44.308222729399986"><ele>4.0</ele><time>2026-04-05T13:41:44.999Z</time></trkpt><trkpt lat="-20.26556800562717" lon="44.30828826304872"><ele>3.75</ele><time>2026-04-05T13:41:45.999Z</time></trkpt><trkpt lat="-20.265662335661773" lon="44.30836631874506"><ele>3.5</ele><time>2026-04-05T13:41:46.999Z</time></trkpt><trkpt lat="-20.265758294092954" lon="44.30845289025697"><ele>3.25</ele><time>2026-04-05T13:41:47.999Z</time></trkpt><trkpt lat="-20.26585482512987" lon="44.30856152130228"><ele>3.0</ele><time>2026-04-05T13:41:48.999Z</time></trkpt><trkpt lat="-20.26594521454689" lon="44.308653016616724"><ele>3.0</ele><time>2026-04-05T13:41:49.999Z</time></trkpt><trkpt lat="-20.266043466968828" lon="44.30874716019831"><ele>3.0</ele><time>2026-04-05T13:41:50.999Z</time></trkpt><trkpt lat="-20.266144143415076" lon="44.30881375365028"><ele>3.0</ele><time>2026-04-05T13:41:51.999Z</time></trkpt><trkpt lat="-20.266239646068502" lon="44.30888631021516"><ele>3.0</ele><time>2026-04-05T13:41:52.999Z</time></trkpt><trkpt lat="-20.266330307892908" lon="44.308953658769894"><ele>2.5</ele><time>2026-04-05T13:41:53.999Z</time></trkpt><trkpt lat="-20.266427961775438" lon="44.309026601109274"><ele>2.0</ele><time>2026-04-05T13:41:54.999Z</time></trkpt><trkpt lat="-20.266540244774212" lon="44.30909613997004"><ele>1.5</ele><time>2026-04-05T13:41:55.999Z</time></trkpt><trkpt lat="-20.26664488449023" lon="44.30917805933433"><ele>1.0</ele><time>2026-04-05T13:41:56.999Z</time></trkpt><trkpt lat="-20.266752721429807" lon="44.30925708818072"><ele>1.0</ele><time>2026-04-05T13:41:57.999Z</time></trkpt><trkpt lat="-20.266849597003176" lon="44.30933121180173"><ele>1.0</ele><time>2026-04-05T13:41:58.999Z</time></trkpt><trkpt lat="-20.266944200928787" lon="44.30940839801867"><ele>1.0</ele><time>2026-04-05T13:41:59.999Z</time></trkpt><trkpt lat="-20.26702990348813" lon="44.30948756711756"><ele>1.0</ele><time>2026-04-05T13:42:00.999Z</time></trkpt><trkpt lat="-20.267115050873453" lon="44.30957055403135"><ele>1.0</ele><time>2026-04-05T13:42:01.999Z</time></trkpt><trkpt lat="-20.267196945861016" lon="44.30965803583011"><ele>1.0</ele><time>2026-04-05T13:42:02.999Z</time></trkpt><trkpt lat="-20.26727620399444" lon="44.30973263890916"><ele>1.0</ele><time>2026-04-05T13:42:03.999Z</time></trkpt><trkpt lat="-20.26735300228962" lon="44.30981102682249"><ele>1.0</ele><time>2026-04-05T13:42:04.999Z</time></trkpt><trkpt lat="-20.267449038940637" lon="44.309880074944154"><ele>1.0</ele><time>2026-04-05T13:42:05.999Z</time></trkpt><trkpt lat="-20.2675659876319" lon="44.30991610868235"><ele>0.9999999999999999</ele><time>2026-04-05T13:42:06.999Z</time></trkpt><trkpt lat="-20.267668691397493" lon="44.30994005098468"><ele>1.0</ele><time>2026-04-05T13:42:07.999Z</time></trkpt><trkpt lat="-20.26775695409059" lon="44.30994900763459"><ele>1.0</ele><time>2026-04-05T13:42:08.999Z</time></trkpt><trkpt lat="-20.267857614485834" lon="44.3099285697609"><ele>1.0</ele><time>2026-04-05T13:42:10.999Z</time></trkpt><trkpt lat="-20.267922453350067" lon="44.30993932130183"><ele>0.9999999999999999</ele><time>2026-04-05T13:42:12.999Z</time></trkpt><trkpt lat="-20.267997309080044" lon="44.30997003158736"><ele>1.0</ele><time>2026-04-05T13:42:15.999Z</time></trkpt><trkpt lat="-20.26806598967844" lon="44.309983740579064"><ele>1.6</ele><time>2026-04-05T13:42:17.999Z</time></trkpt><trkpt lat="-20.26814229824065" lon="44.30999237682461"><ele>2.2</ele><time>2026-04-05T13:42:21.999Z</time></trkpt><trkpt lat="-20.26820721433898" lon="44.30999680909493"><ele>2.8000000000000003</ele><time>2026-04-05T13:42:23.999Z</time></trkpt><trkpt lat="-20.268301328467256" lon="44.31002186418872"><ele>3.4000000000000004</ele><time>2026-04-05T13:42:25.999Z</time></trkpt><trkpt lat="-20.268407003560405" lon="44.31003617084871"><ele>4.0</ele><time>2026-04-05T13:42:27.999Z</time></trkpt><trkpt lat="-20.268512118495533" lon="44.31003777649706"><ele>4.0</ele><time>2026-04-05T13:42:29.999Z</time></trkpt><trkpt lat="-20.268644963184723" lon="44.31004646198252"><ele>4.0</ele><time>2026-04-05T13:42:31.999Z</time></trkpt><trkpt lat="-20.26874562477105" lon="44.31007719968564"><ele>4.0</ele><time>2026-04-05T13:42:33.999Z</time></trkpt><trkpt lat="-20.268858270162145" lon="44.31007197114597"><ele>4.0</ele><time>2026-04-05T13:42:35.998Z</time></trkpt><trkpt lat="-20.26892137546135" lon="44.31006509299225"><ele>4.0</ele><time>2026-04-05T13:42:36.998Z</time></trkpt><trkpt lat="-20.268998940677736" lon="44.31007493423239"><ele>3.6666666666666665</ele><time>2026-04-05T13:42:37.998Z</time></trkpt><trkpt lat="-20.269073774889648" lon="44.31009169853053"><ele>3.333333333333333</ele><time>2026-04-05T13:42:38.998Z</time></trkpt><trkpt lat="-20.269140960941545" lon="44.310120720078764"><ele>3.0</ele><time>2026-04-05T13:42:39.998Z</time></trkpt><trkpt lat="-20.26920142049955" lon="44.31014586508949"><ele>2.6666666666666665</ele><time>2026-04-05T13:42:40.998Z</time></trkpt><trkpt lat="-20.26930034345746" lon="44.310177532641994"><ele>2.333333333333333</ele><time>2026-04-05T13:42:42.998Z</time></trkpt><trkpt lat="-20.2694283532097" lon="44.310200944135985"><ele>2.0</ele><time>2026-04-05T13:42:44.998Z</time></trkpt><trkpt lat="-20.269539101772263" lon="44.31017599127174"><ele>1.9999999999999998</ele><time>2026-04-05T13:42:46.998Z</time></trkpt><trkpt lat="-20.26962300103656" lon="44.310139798431415"><ele>2.0</ele><time>2026-04-05T13:42:48.998Z</time></trkpt><trkpt lat="-20.269680588908855" lon="44.310085460769514"><ele>2.0</ele><time>2026-04-05T13:42:50.998Z</time></trkpt><trkpt lat="-20.269734006083567" lon="44.30999817567985"><ele>2.0</ele><time>2026-04-05T13:42:53.999Z</time></trkpt><trkpt lat="-20.269811656311397" lon="44.31002070322449"><ele>1.9999999999999998</ele><time>2026-04-05T13:42:55.999Z</time></trkpt><trkpt lat="-20.269886289967026" lon="44.31004412565613"><ele>2.0</ele><time>2026-04-05T13:42:59.999Z</time></trkpt><trkpt lat="-20.269949173484044" lon="44.30998542580599"><ele>2.2</ele><time>2026-04-05T13:43:02.999Z</time></trkpt><trkpt lat="-20.270010548165747" lon="44.3099344801421"><ele>2.4000000000000004</ele><time>2026-04-05T13:43:04.999Z</time></trkpt><trkpt lat="-20.270103918221693" lon="44.30990692533937"><ele>2.5999999999999996</ele><time>2026-04-05T13:43:06.999Z</time></trkpt><trkpt lat="-20.270225838554467" lon="44.309950263869816"><ele>2.8</ele><time>2026-04-05T13:43:08.999Z</time></trkpt><trkpt lat="-20.27029554991266" lon="44.309988081327695"><ele>3.0</ele><time>2026-04-05T13:43:09.999Z</time></trkpt><trkpt lat="-20.270371044777608" lon="44.31002209283162"><ele>3.0</ele><time>2026-04-05T13:43:10.999Z</time></trkpt><trkpt lat="-20.270448277521776" lon="44.31004525563766"><ele>3.0</ele><time>2026-04-05T13:43:11.999Z</time></trkpt><trkpt lat="-20.270534969895714" lon="44.31007295104667"><ele>3.0</ele><time>2026-04-05T13:43:12.999Z</time></trkpt><trkpt lat="-20.270601086975812" lon="44.31009624542131"><ele>3.0</ele><time>2026-04-05T13:43:13.999Z</time></trkpt><trkpt lat="-20.270694111691274" lon="44.31011752430433"><ele>3.0</ele><time>2026-04-05T13:43:15.999Z</time></trkpt><trkpt lat="-20.270821033044093" lon="44.31015419983313"><ele>2.8333333333333335</ele><time>2026-04-05T13:43:17.999Z</time></trkpt><trkpt lat="-20.270892143497903" lon="44.310176305015986"><ele>2.6666666666666665</ele><time>2026-04-05T13:43:18.999Z</time></trkpt><trkpt lat="-20.270965047306312" lon="44.31019317250632"><ele>2.5</ele><time>2026-04-05T13:43:19.999Z</time></trkpt><trkpt lat="-20.27103955650582" lon="44.31021257942742"><ele>2.333333333333333</ele><time>2026-04-05T13:43:20.999Z</time></trkpt><trkpt lat="-20.271100192207307" lon="44.310235634641764"><ele>2.1666666666666665</ele><time>2026-04-05T13:43:21.999Z</time></trkpt><trkpt lat="-20.271207413717903" lon="44.31026234024472"><ele>2.0</ele><time>2026-04-05T13:43:23.999Z</time></trkpt><trkpt lat="-20.271327218903807" lon="44.31023844057948"><ele>1.9999999999999998</ele><time>2026-04-05T13:43:25.999Z</time></trkpt><trkpt lat="-20.271403179636692" lon="44.31024489110557"><ele>2.0</ele><time>2026-04-05T13:43:26.999Z</time></trkpt><trkpt lat="-20.271480789251218" lon="44.31023652440865"><ele>2.0</ele><time>2026-04-05T13:43:27.999Z</time></trkpt><trkpt lat="-20.271562975292685" lon="44.31021072246671"><ele>2.0</ele><time>2026-04-05T13:43:28.999Z</time></trkpt><trkpt lat="-20.271648624476526" lon="44.31018780003896"><ele>1.9999999999999998</ele><time>2026-04-05T13:43:29.999Z</time></trkpt><trkpt lat="-20.27173441326114" lon="44.31016292032862"><ele>2.0</ele><time>2026-04-05T13:43:30.999Z</time></trkpt><trkpt lat="-20.27182328173106" lon="44.310133581487186"><ele>2.0</ele><time>2026-04-05T13:43:31.999Z</time></trkpt><trkpt lat="-20.271917827920394" lon="44.31010488447442"><ele>2.0</ele><time>2026-04-05T13:43:32.999Z</time></trkpt><trkpt lat="-20.272010628541842" lon="44.3100721638992"><ele>2.0</ele><time>2026-04-05T13:43:33.999Z</time></trkpt><trkpt lat="-20.272103299691686" lon="44.31003392440922"><ele>2.0</ele><time>2026-04-05T13:43:34.999Z</time></trkpt><trkpt lat="-20.272195027874385" lon="44.309990610843776"><ele>2.0</ele><time>2026-04-05T13:43:35.999Z</time></trkpt><trkpt lat="-20.272290394861038" lon="44.309948415820344"><ele>2.0</ele><time>2026-04-05T13:43:36.999Z</time></trkpt><trkpt lat="-20.272389775775586" lon="44.3099114898764"><ele>2.0</ele><time>2026-04-05T13:43:37.999Z</time></trkpt><trkpt lat="-20.272490330514408" lon="44.309873379077864"><ele>2.0</ele><time>2026-04-05T13:43:38.999Z</time></trkpt><trkpt lat="-20.27258795625187" lon="44.3098323096874"><ele>2.0</ele><time>2026-04-05T13:43:39.999Z</time></trkpt><trkpt lat="-20.27268118481417" lon="44.30978568972996"><ele>2.0</ele><time>2026-04-05T13:43:40.999Z</time></trkpt><trkpt lat="-20.27275806244074" lon="44.309746426152"><ele>1.9999999999999998</ele><time>2026-04-05T13:43:41.999Z</time></trkpt><trkpt lat="-20.2728305153061" lon="44.3097151019452"><ele>2.0</ele><time>2026-04-05T13:43:42.999Z</time></trkpt><trkpt lat="-20.272904566332045" lon="44.309686208403726"><ele>2.0</ele><time>2026-04-05T13:43:43.999Z</time></trkpt><trkpt lat="-20.2729758283805" lon="44.30967149444191"><ele>2.0</ele><time>2026-04-05T13:43:44.999Z</time></trkpt><trkpt lat="-20.27309178237167" lon="44.309681256183005"><ele>1.9999999999999998</ele><time>2026-04-05T13:43:46.999Z</time></trkpt><trkpt lat="-20.27316100988857" lon="44.30969666157479"><ele>2.0</ele><time>2026-04-05T13:43:48.999Z</time></trkpt><trkpt lat="-20.273250917176277" lon="44.309687444177676"><ele>2.333333333333333</ele><time>2026-04-05T13:43:50.999Z</time></trkpt><trkpt lat="-20.27338349466082" lon="44.30970209118091"><ele>2.6666666666666665</ele><time>2026-04-05T13:43:52.999Z</time></trkpt><trkpt lat="-20.27346188822239" lon="44.30971580707616"><ele>3.0</ele><time>2026-04-05T13:43:53.999Z</time></trkpt><trkpt lat="-20.273541583010893" lon="44.30973065900429"><ele>3.333333333333333</ele><time>2026-04-05T13:43:54.999Z</time></trkpt><trkpt lat="-20.273618623082683" lon="44.30975054331079"><ele>3.6666666666666665</ele><time>2026-04-05T13:43:55.999Z</time></trkpt><trkpt lat="-20.27368914595451" lon="44.30977302563892"><ele>4.0</ele><time>2026-04-05T13:43:56.999Z</time></trkpt><trkpt lat="-20.273755392487605" lon="44.309789544425335"><ele>3.9999999999999996</ele><time>2026-04-05T13:43:57.999Z</time></trkpt><trkpt lat="-20.273827692100493" lon="44.30979726191009"><ele>4.0</ele><time>2026-04-05T13:43:58.999Z</time></trkpt><trkpt lat="-20.27390298430661" lon="44.30980715390705"><ele>4.0</ele><time>2026-04-05T13:43:59.999Z</time></trkpt><trkpt lat="-20.27398061602389" lon="44.309815918665564"><ele>4.0</ele><time>2026-04-05T13:44:00.999Z</time></trkpt><trkpt lat="-20.274052565316445" lon="44.30982908289421"><ele>3.9999999999999996</ele><time>2026-04-05T13:44:01.999Z</time></trkpt><trkpt lat="-20.274130265862674" lon="44.30984371497593"><ele>4.0</ele><time>2026-04-05T13:44:02.999Z</time></trkpt><trkpt lat="-20.274207208642444" lon="44.30986798100826"><ele>3.833333333333333</ele><time>2026-04-05T13:44:03.999Z</time></trkpt><trkpt lat="-20.274284809047263" lon="44.309908913451544"><ele>3.6666666666666665</ele><time>2026-04-05T13:44:04.999Z</time></trkpt><trkpt lat="-20.27436337021312" lon="44.30994835925982"><ele>3.5</ele><time>2026-04-05T13:44:05.999Z</time></trkpt><trkpt lat="-20.274446643911336" lon="44.30998672719532"><ele>3.333333333333333</ele><time>2026-04-05T13:44:06.999Z</time></trkpt><trkpt lat="-20.274534641770252" lon="44.310014331296514"><ele>3.1666666666666665</ele><time>2026-04-05T13:44:07.999Z</time></trkpt><trkpt lat="-20.27461967257225" lon="44.31004195631125"><ele>3.0</ele><time>2026-04-05T13:44:08.999Z</time></trkpt><trkpt lat="-20.274702201451458" lon="44.31007164933341"><ele>3.3333333333333335</ele><time>2026-04-05T13:44:09.999Z</time></trkpt><trkpt lat="-20.2747863037638" lon="44.31010477107759"><ele>3.666666666666667</ele><time>2026-04-05T13:44:10.999Z</time></trkpt><trkpt lat="-20.27486966893502" lon="44.31013021216923"><ele>4.0</ele><time>2026-04-05T13:44:11.999Z</time></trkpt><trkpt lat="-20.274950106479185" lon="44.31015397672289"><ele>4.333333333333334</ele><time>2026-04-05T13:44:12.999Z</time></trkpt><trkpt lat="-20.27501863468531" lon="44.310168834634226"><ele>4.666666666666667</ele><time>2026-04-05T13:44:13.999Z</time></trkpt><trkpt lat="-20.275090597136455" lon="44.31018847951408"><ele>5.0</ele><time>2026-04-05T13:44:14.999Z</time></trkpt><trkpt lat="-20.27516799614712" lon="44.31020268282795"><ele>5.0</ele><time>2026-04-05T13:44:15.999Z</time></trkpt><trkpt lat="-20.27524462162326" lon="44.31021135496957"><ele>5.0</ele><time>2026-04-05T13:44:16.999Z</time></trkpt><trkpt lat="-20.275323615568336" lon="44.310213006641824"><ele>5.0</ele><time>2026-04-05T13:44:17.999Z</time></trkpt><trkpt lat="-20.275401319762018" lon="44.31021851027633"><ele>5.0</ele><time>2026-04-05T13:44:18.999Z</time></trkpt><trkpt lat="-20.275478598851876" lon="44.310214307371034"><ele>5.0</ele><time>2026-04-05T13:44:19.999Z</time></trkpt><trkpt lat="-20.27555989741576" lon="44.310207590833016"><ele>5.0</ele><time>2026-04-05T13:44:20.999Z</time></trkpt><trkpt lat="-20.275637252655873" lon="44.31020668652793"><ele>5.166666666666667</ele><time>2026-04-05T13:44:21.999Z</time></trkpt><trkpt lat="-20.27570948381209" lon="44.31020516993366"><ele>5.333333333333334</ele><time>2026-04-05T13:44:22.999Z</time></trkpt><trkpt lat="-20.27578421133953" lon="44.31022402808362"><ele>5.5</ele><time>2026-04-05T13:44:23.999Z</time></trkpt><trkpt lat="-20.275852785006915" lon="44.310247502546844"><ele>5.666666666666667</ele><time>2026-04-05T13:44:24.999Z</time></trkpt><trkpt lat="-20.275920156853513" lon="44.310263764086606"><ele>5.833333333333333</ele><time>2026-04-05T13:44:25.999Z</time></trkpt><trkpt lat="-20.276042361361746" lon="44.310272968255525"><ele>6.0</ele><time>2026-04-05T13:44:27.999Z</time></trkpt><trkpt lat="-20.276115815003877" lon="44.3102400273632"><ele>6.0</ele><time>2026-04-05T13:44:28.999Z</time></trkpt><trkpt lat="-20.27619469014839" lon="44.310202319049324"><ele>6.0</ele><time>2026-04-05T13:44:29.999Z</time></trkpt><trkpt lat="-20.276282602155508" lon="44.31016360335053"><ele>6.0</ele><time>2026-04-05T13:44:30.999Z</time></trkpt><trkpt lat="-20.27637610796321" lon="44.31012492513836"><ele>6.0</ele><time>2026-04-05T13:44:31.999Z</time></trkpt><trkpt lat="-20.27646419497373" lon="44.31008293299963"><ele>6.0</ele><time>2026-04-05T13:44:32.999Z</time></trkpt><trkpt lat="-20.27655940223861" lon="44.31006893817493"><ele>5.833333333333333</ele><time>2026-04-05T13:44:33.999Z</time></trkpt><trkpt lat="-20.276644382234707" lon="44.31006795567703"><ele>5.666666666666667</ele><time>2026-04-05T13:44:34.999Z</time></trkpt><trkpt lat="-20.27672700415086" lon="44.31007181077767"><ele>5.5</ele><time>2026-04-05T13:44:35.999Z</time></trkpt><trkpt lat="-20.276809790411704" lon="44.31007315640818"><ele>5.333333333333334</ele><time>2026-04-05T13:44:36.999Z</time></trkpt><trkpt lat="-20.276888104564986" lon="44.310076404109786"><ele>5.166666666666667</ele><time>2026-04-05T13:44:37.999Z</time></trkpt><trkpt lat="-20.276964831927195" lon="44.310092283055596"><ele>5.0</ele><time>2026-04-05T13:44:38.998Z</time></trkpt><trkpt lat="-20.2770358912659" lon="44.31012009065491"><ele>5.0</ele><time>2026-04-05T13:44:39.998Z</time></trkpt><trkpt lat="-20.277105597288568" lon="44.310155116633915"><ele>5.0</ele><time>2026-04-05T13:44:40.998Z</time></trkpt><trkpt lat="-20.277179641671086" lon="44.31018664255156"><ele>5.0</ele><time>2026-04-05T13:44:41.998Z</time></trkpt><trkpt lat="-20.277256069420584" lon="44.31022346576571"><ele>5.0</ele><time>2026-04-05T13:44:42.998Z</time></trkpt><trkpt lat="-20.277333961550823" lon="44.310263656009475"><ele>5.0</ele><time>2026-04-05T13:44:43.998Z</time></trkpt><trkpt lat="-20.277410639662406" lon="44.31030563170183"><ele>5.0</ele><time>2026-04-05T13:44:44.998Z</time></trkpt><trkpt lat="-20.277495069493494" lon="44.31034131313882"><ele>5.0</ele><time>2026-04-05T13:44:45.998Z</time></trkpt><trkpt lat="-20.27758582474765" lon="44.310364618608155"><ele>5.0</ele><time>2026-04-05T13:44:46.998Z</time></trkpt><trkpt lat="-20.27767339115711" lon="44.31039887290047"><ele>5.0</ele><time>2026-04-05T13:44:47.998Z</time></trkpt><trkpt lat="-20.27775324380445" lon="44.31044048871366"><ele>5.0</ele><time>2026-04-05T13:44:48.998Z</time></trkpt><trkpt lat="-20.277824003881268" lon="44.310492869609625"><ele>5.0</ele><time>2026-04-05T13:44:49.998Z</time></trkpt><trkpt lat="-20.27788796483088" lon="44.31054733349525"><ele>5.0</ele><time>2026-04-05T13:44:50.998Z</time></trkpt><trkpt lat="-20.27794947301587" lon="44.31060795065926"><ele>5.0</ele><time>2026-04-05T13:44:51.998Z</time></trkpt><trkpt lat="-20.27800984781329" lon="44.31067226073913"><ele>5.0</ele><time>2026-04-05T13:44:52.998Z</time></trkpt><trkpt lat="-20.27807768485998" lon="44.31072728525983"><ele>5.0</ele><time>2026-04-05T13:44:53.998Z</time></trkpt><trkpt lat="-20.278153985472034" lon="44.310772334877846"><ele>5.0</ele><time>2026-04-05T13:44:54.998Z</time></trkpt><trkpt lat="-20.27823707788336" lon="44.31079682879655"><ele>5.0</ele><time>2026-04-05T13:44:55.998Z</time></trkpt><trkpt lat="-20.278319479182823" lon="44.310795012102936"><ele>5.0</ele><time>2026-04-05T13:44:56.998Z</time></trkpt><trkpt lat="-20.278406412651055" lon="44.3107778677659"><ele>5.0</ele><time>2026-04-05T13:44:57.998Z</time></trkpt><trkpt lat="-20.278489640624098" lon="44.310756605227986"><ele>5.0</ele><time>2026-04-05T13:44:58.998Z</time></trkpt><trkpt lat="-20.278571151936525" lon="44.310728256217615"><ele>5.0</ele><time>2026-04-05T13:44:59.999Z</time></trkpt><trkpt lat="-20.27865918395411" lon="44.31070362737319"><ele>5.0</ele><time>2026-04-05T13:45:00.999Z</time></trkpt><trkpt lat="-20.278746294731608" lon="44.31066448173793"><ele>5.0</ele><time>2026-04-05T13:45:01.999Z</time></trkpt><trkpt lat="-20.278832716423395" lon="44.310626004777426"><ele>5.0</ele><time>2026-04-05T13:45:02.999Z</time></trkpt><trkpt lat="-20.27892224572947" lon="44.31059815527412"><ele>5.0</ele><time>2026-04-05T13:45:03.999Z</time></trkpt><trkpt lat="-20.279012965621213" lon="44.31058855118007"><ele>5.0</ele><time>2026-04-05T13:45:04.999Z</time></trkpt><trkpt lat="-20.279098360689865" lon="44.310578374084486"><ele>5.0</ele><time>2026-04-05T13:45:05.999Z</time></trkpt><trkpt lat="-20.279183307644292" lon="44.31056938832237"><ele>5.0</ele><time>2026-04-05T13:45:06.999Z</time></trkpt><trkpt lat="-20.279265119838673" lon="44.310563424639426"><ele>5.0</ele><time>2026-04-05T13:45:07.999Z</time></trkpt><trkpt lat="-20.279348140970047" lon="44.310557851364514"><ele>5.2</ele><time>2026-04-05T13:45:08.999Z</time></trkpt><trkpt lat="-20.27942364624748" lon="44.310557365931416"><ele>5.4</ele><time>2026-04-05T13:45:09.999Z</time></trkpt><trkpt lat="-20.279540786845512" lon="44.310539856709674"><ele>5.6</ele><time>2026-04-05T13:45:11.999Z</time></trkpt><trkpt lat="-20.27964011765903" lon="44.31047559397173"><ele>5.8</ele><time>2026-04-05T13:45:13.999Z</time></trkpt><trkpt lat="-20.2796834045986" lon="44.310419386889414"><ele>6.0</ele><time>2026-04-05T13:45:14.999Z</time></trkpt><trkpt lat="-20.2797176639931" lon="44.31033880516728"><ele>6.0</ele><time>2026-04-05T13:45:15.999Z</time></trkpt><trkpt lat="-20.279739678901493" lon="44.31024896435547"><ele>6.0</ele><time>2026-04-05T13:45:16.999Z</time></trkpt><trkpt lat="-20.27976062443554" lon="44.31014802308174"><ele>6.0</ele><time>2026-04-05T13:45:17.999Z</time></trkpt><trkpt lat="-20.279777183378837" lon="44.3100484063595"><ele>6.0</ele><time>2026-04-05T13:45:18.999Z</time></trkpt><trkpt lat="-20.279791775519545" lon="44.30994686398953"><ele>6.0</ele><time>2026-04-05T13:45:19.999Z</time></trkpt><trkpt lat="-20.279814550702582" lon="44.30984466700488"><ele>5.833333333333333</ele><time>2026-04-05T13:45:20.999Z</time></trkpt><trkpt lat="-20.279840906388067" lon="44.309742514504805"><ele>5.666666666666667</ele><time>2026-04-05T13:45:21.999Z</time></trkpt><trkpt lat="-20.27986923219623" lon="44.309648107076846"><ele>5.5</ele><time>2026-04-05T13:45:22.999Z</time></trkpt><trkpt lat="-20.279898545453815" lon="44.30956363411892"><ele>5.333333333333334</ele><time>2026-04-05T13:45:23.999Z</time></trkpt><trkpt lat="-20.279931272532366" lon="44.30948687660635"><ele>5.166666666666667</ele><time>2026-04-05T13:45:24.999Z</time></trkpt><trkpt lat="-20.279969529901106" lon="44.30942001684116"><ele>5.0</ele><time>2026-04-05T13:45:25.999Z</time></trkpt><trkpt lat="-20.28001802146844" lon="44.30937217844854"><ele>5.0</ele><time>2026-04-05T13:45:26.999Z</time></trkpt><trkpt lat="-20.28010672957705" lon="44.30929809886951"><ele>5.0</ele><time>2026-04-05T13:45:28.999Z</time></trkpt><trkpt lat="-20.280160884203195" lon="44.30926156634959"><ele>5.0</ele><time>2026-04-05T13:45:29.999Z</time></trkpt><trkpt lat="-20.28021633921611" lon="44.30921812750035"><ele>5.0</ele><time>2026-04-05T13:45:30.999Z</time></trkpt><trkpt lat="-20.28027739024627" lon="44.309184829612754"><ele>5.0</ele><time>2026-04-05T13:45:31.999Z</time></trkpt><trkpt lat="-20.280346898504927" lon="44.30915711594712"><ele>5.0</ele><time>2026-04-05T13:45:32.999Z</time></trkpt><trkpt lat="-20.28042796235623" lon="44.30913889451537"><ele>5.0</ele><time>2026-04-05T13:45:33.999Z</time></trkpt><trkpt lat="-20.280512614846284" lon="44.309110820598306"><ele>5.0</ele><time>2026-04-05T13:45:34.999Z</time></trkpt><trkpt lat="-20.280598181178608" lon="44.309064356167845"><ele>5.0</ele><time>2026-04-05T13:45:35.999Z</time></trkpt><trkpt lat="-20.280689215309994" lon="44.30903406553061"><ele>5.0</ele><time>2026-04-05T13:45:36.999Z</time></trkpt><trkpt lat="-20.2807901208667" lon="44.309030917576415"><ele>5.0</ele><time>2026-04-05T13:45:37.999Z</time></trkpt><trkpt lat="-20.280893689862495" lon="44.30903183481029"><ele>5.0</ele><time>2026-04-05T13:45:38.999Z</time></trkpt><trkpt lat="-20.280998163273964" lon="44.30902592686224"><ele>5.0</ele><time>2026-04-05T13:45:39.999Z</time></trkpt><trkpt lat="-20.281102404255293" lon="44.30901886955193"><ele>5.0</ele><time>2026-04-05T13:45:40.999Z</time></trkpt><trkpt lat="-20.281204606409965" lon="44.30900713665812"><ele>5.0</ele><time>2026-04-05T13:45:41.999Z</time></trkpt><trkpt lat="-20.281306098241757" lon="44.30899344820733"><ele>5.0</ele><time>2026-04-05T13:45:42.999Z</time></trkpt><trkpt lat="-20.28140800933063" lon="44.30897356181838"><ele>5.0</ele><time>2026-04-05T13:45:43.999Z</time></trkpt><trkpt lat="-20.2815096215469" lon="44.30894370900419"><ele>5.0</ele><time>2026-04-05T13:45:44.999Z</time></trkpt><trkpt lat="-20.281599459531712" lon="44.30890830074427"><ele>5.0</ele><time>2026-04-05T13:45:45.999Z</time></trkpt><trkpt lat="-20.281693992196153" lon="44.30889530597169"><ele>5.0</ele><time>2026-04-05T13:45:46.999Z</time></trkpt><trkpt lat="-20.28179384740483" lon="44.30891091581115"><ele>5.0</ele><time>2026-04-05T13:45:47.999Z</time></trkpt><trkpt lat="-20.281895037523636" lon="44.30893515466174"><ele>5.2</ele><time>2026-04-05T13:45:48.999Z</time></trkpt><trkpt lat="-20.281989157050724" lon="44.308970087838816"><ele>5.4</ele><time>2026-04-05T13:45:49.999Z</time></trkpt><trkpt lat="-20.282081315922362" lon="44.30900523906306"><ele>5.6</ele><time>2026-04-05T13:45:50.999Z</time></trkpt><trkpt lat="-20.2821751456576" lon="44.30903621977442"><ele>5.8</ele><time>2026-04-05T13:45:51.999Z</time></trkpt><trkpt lat="-20.282270737875383" lon="44.309063511407786"><ele>6.0</ele><time>2026-04-05T13:45:52.999Z</time></trkpt><trkpt lat="-20.282357129727345" lon="44.30909378406391"><ele>6.199999999999999</ele><time>2026-04-05T13:45:53.999Z</time></trkpt><trkpt lat="-20.282441758062653" lon="44.30912362315012"><ele>6.3999999999999995</ele><time>2026-04-05T13:45:54.999Z</time></trkpt><trkpt lat="-20.282529320776504" lon="44.30915247758576"><ele>6.6</ele><time>2026-04-05T13:45:55.999Z</time></trkpt><trkpt lat="-20.28261694923674" lon="44.30918117576737"><ele>6.8</ele><time>2026-04-05T13:45:56.999Z</time></trkpt><trkpt lat="-20.282703987615093" lon="44.30921115549119"><ele>7.0</ele><time>2026-04-05T13:45:57.999Z</time></trkpt><trkpt lat="-20.282791151779254" lon="44.30924255017171"><ele>7.0</ele><time>2026-04-05T13:45:58.999Z</time></trkpt><trkpt lat="-20.282881105385894" lon="44.30927002874806"><ele>6.999999999999999</ele><time>2026-04-05T13:45:59.999Z</time></trkpt><trkpt lat="-20.28297554274472" lon="44.30929393572349"><ele>6.999999999999999</ele><time>2026-04-05T13:46:00.999Z</time></trkpt><trkpt lat="-20.28306855202323" lon="44.30932840770283"><ele>7.0</ele><time>2026-04-05T13:46:01.999Z</time></trkpt><trkpt lat="-20.28314383815215" lon="44.3093703390279"><ele>7.0</ele><time>2026-04-05T13:46:02.999Z</time></trkpt><trkpt lat="-20.28324035108632" lon="44.30939965315538"><ele>7.0</ele><time>2026-04-05T13:46:03.999Z</time></trkpt><trkpt lat="-20.283340175858257" lon="44.3094262021969"><ele>6.999999999999999</ele><time>2026-04-05T13:46:04.999Z</time></trkpt><trkpt lat="-20.283433492948966" lon="44.3094461403152"><ele>6.999999999999999</ele><time>2026-04-05T13:46:05.999Z</time></trkpt><trkpt lat="-20.28352752115536" lon="44.30946833309573"><ele>7.0</ele><time>2026-04-05T13:46:06.999Z</time></trkpt><trkpt lat="-20.283619050498338" lon="44.30949430188949"><ele>7.0</ele><time>2026-04-05T13:46:07.999Z</time></trkpt><trkpt lat="-20.28370832633946" lon="44.30952732213567"><ele>7.000000000000001</ele><time>2026-04-05T13:46:08.999Z</time></trkpt><trkpt lat="-20.283795006618003" lon="44.30956060301302"><ele>7.0</ele><time>2026-04-05T13:46:09.999Z</time></trkpt><trkpt lat="-20.283881844604533" lon="44.309590658540934"><ele>7.0</ele><time>2026-04-05T13:46:10.999Z</time></trkpt><trkpt lat="-20.283968202484026" lon="44.30960791404705"><ele>7.0</ele><time>2026-04-05T13:46:11.999Z</time></trkpt><trkpt lat="-20.28404815122378" lon="44.309612859764734"><ele>7.000000000000001</ele><time>2026-04-05T13:46:12.999Z</time></trkpt><trkpt lat="-20.284128280294052" lon="44.309626349660945"><ele>7.0</ele><time>2026-04-05T13:46:13.999Z</time></trkpt><trkpt lat="-20.284205017926922" lon="44.3096493315379"><ele>7.000000000000001</ele><time>2026-04-05T13:46:14.999Z</time></trkpt><trkpt lat="-20.284282683055547" lon="44.309672744761706"><ele>7.0</ele><time>2026-04-05T13:46:15.999Z</time></trkpt><trkpt lat="-20.284362902597444" lon="44.30969900149634"><ele>7.0</ele><time>2026-04-05T13:46:16.999Z</time></trkpt><trkpt lat="-20.284445471483693" lon="44.309723636203636"><ele>7.0</ele><time>2026-04-05T13:46:17.999Z</time></trkpt><trkpt lat="-20.28452869746878" lon="44.30975045857777"><ele>7.000000000000001</ele><time>2026-04-05T13:46:18.999Z</time></trkpt><trkpt lat="-20.28460616281287" lon="44.30978740664054"><ele>7.0</ele><time>2026-04-05T13:46:19.999Z</time></trkpt><trkpt lat="-20.284681290478368" lon="44.30982511980649"><ele>6.833333333333334</ele><time>2026-04-05T13:46:20.999Z</time></trkpt><trkpt lat="-20.284763496436085" lon="44.309855493949485"><ele>6.666666666666667</ele><time>2026-04-05T13:46:21.999Z</time></trkpt><trkpt lat="-20.284850198751123" lon="44.3098769324424"><ele>6.5</ele><time>2026-04-05T13:46:22.999Z</time></trkpt><trkpt lat="-20.284928715097703" lon="44.309922782143616"><ele>6.333333333333334</ele><time>2026-04-05T13:46:23.999Z</time></trkpt><trkpt lat="-20.28500884567831" lon="44.30996411838397"><ele>6.166666666666667</ele><time>2026-04-05T13:46:24.999Z</time></trkpt><trkpt lat="-20.28508635394389" lon="44.31000076876339"><ele>6.0</ele><time>2026-04-05T13:46:25.999Z</time></trkpt><trkpt lat="-20.2851576664948" lon="44.31004297029538"><ele>6.0</ele><time>2026-04-05T13:46:26.999Z</time></trkpt><trkpt lat="-20.28522744177691" lon="44.310081399182714"><ele>6.0</ele><time>2026-04-05T13:46:27.999Z</time></trkpt><trkpt lat="-20.285299407984777" lon="44.31011607791558"><ele>6.0</ele><time>2026-04-05T13:46:28.999Z</time></trkpt><trkpt lat="-20.28537129232338" lon="44.310145994355224"><ele>6.0</ele><time>2026-04-05T13:46:29.999Z</time></trkpt><trkpt lat="-20.28544603551836" lon="44.31017069498247"><ele>6.0</ele><time>2026-04-05T13:46:30.999Z</time></trkpt><trkpt lat="-20.285520944586683" lon="44.31019112337867"><ele>6.0</ele><time>2026-04-05T13:46:31.999Z</time></trkpt><trkpt lat="-20.285606377876938" lon="44.310220605758126"><ele>6.0</ele><time>2026-04-05T13:46:32.999Z</time></trkpt><trkpt lat="-20.285677591762106" lon="44.31024433352038"><ele>6.0</ele><time>2026-04-05T13:46:33.999Z</time></trkpt><trkpt lat="-20.28574579410703" lon="44.310265118227775"><ele>6.0</ele><time>2026-04-05T13:46:34.999Z</time></trkpt><trkpt lat="-20.28580862308595" lon="44.3102817276768"><ele>6.0</ele><time>2026-04-05T13:46:35.999Z</time></trkpt><trkpt lat="-20.285928506875955" lon="44.310309065667596"><ele>6.0</ele><time>2026-04-05T13:46:37.999Z</time></trkpt><trkpt lat="-20.286047659487192" lon="44.310328768039184"><ele>6.0</ele><time>2026-04-05T13:46:39.999Z</time></trkpt><trkpt lat="-20.286160518049705" lon="44.31038184928839"><ele>6.0</ele><time>2026-04-05T13:46:41.999Z</time></trkpt><trkpt lat="-20.286234583620242" lon="44.31041135611635"><ele>6.0</ele><time>2026-04-05T13:46:42.999Z</time></trkpt><trkpt lat="-20.286303412516503" lon="44.310428042448684"><ele>6.0</ele><time>2026-04-05T13:46:43.999Z</time></trkpt><trkpt lat="-20.28637251430484" lon="44.31044673391921"><ele>6.0</ele><time>2026-04-05T13:46:44.999Z</time></trkpt><trkpt lat="-20.286440782185306" lon="44.310465010506896"><ele>6.0</ele><time>2026-04-05T13:46:45.999Z</time></trkpt><trkpt lat="-20.286508508281834" lon="44.310480711411316"><ele>5.833333333333333</ele><time>2026-04-05T13:46:46.999Z</time></trkpt><trkpt lat="-20.28658049475576" lon="44.310493682775004"><ele>5.666666666666667</ele><time>2026-04-05T13:46:47.999Z</time></trkpt><trkpt lat="-20.28665738323706" lon="44.31051097231696"><ele>5.5</ele><time>2026-04-05T13:46:48.999Z</time></trkpt><trkpt lat="-20.28673548886081" lon="44.31053299347258"><ele>5.333333333333334</ele><time>2026-04-05T13:46:49.999Z</time></trkpt><trkpt lat="-20.286815872833657" lon="44.3105637228785"><ele>5.166666666666667</ele><time>2026-04-05T13:46:50.998Z</time></trkpt><trkpt lat="-20.28690309086819" lon="44.3106081302163"><ele>5.0</ele><time>2026-04-05T13:46:51.998Z</time></trkpt><trkpt lat="-20.286998929634734" lon="44.310639048439725"><ele>5.0</ele><time>2026-04-05T13:46:52.998Z</time></trkpt><trkpt lat="-20.28709803840441" lon="44.31066206034667"><ele>5.0</ele><time>2026-04-05T13:46:53.998Z</time></trkpt><trkpt lat="-20.287195101167928" lon="44.31068615575036"><ele>5.0</ele><time>2026-04-05T13:46:54.998Z</time></trkpt><trkpt lat="-20.28729000848901" lon="44.31070860728928"><ele>5.0</ele><time>2026-04-05T13:46:55.998Z</time></trkpt><trkpt lat="-20.28737837964907" lon="44.310732294678964"><ele>5.0</ele><time>2026-04-05T13:46:56.998Z</time></trkpt><trkpt lat="-20.28745929631992" lon="44.31075409558838"><ele>4.833333333333334</ele><time>2026-04-05T13:46:57.998Z</time></trkpt><trkpt lat="-20.287538859238367" lon="44.310774144292665"><ele>4.666666666666667</ele><time>2026-04-05T13:46:58.998Z</time></trkpt><trkpt lat="-20.28762001223652" lon="44.31080059969451"><ele>4.5</ele><time>2026-04-05T13:46:59.998Z</time></trkpt><trkpt lat="-20.287704971746187" lon="44.31083065763162"><ele>4.333333333333333</ele><time>2026-04-05T13:47:00.998Z</time></trkpt><trkpt lat="-20.28779061256856" lon="44.31086369013"><ele>4.166666666666666</ele><time>2026-04-05T13:47:01.998Z</time></trkpt><trkpt lat="-20.287877312566803" lon="44.3108813159393"><ele>4.0</ele><time>2026-04-05T13:47:02.998Z</time></trkpt><trkpt lat="-20.28797046706968" lon="44.31090276733406"><ele>4.0</ele><time>2026-04-05T13:47:03.998Z</time></trkpt><trkpt lat="-20.288065105006392" lon="44.3109201987153"><ele>4.0</ele><time>2026-04-05T13:47:04.998Z</time></trkpt><trkpt lat="-20.288153119316608" lon="44.31094107308774"><ele>4.0</ele><time>2026-04-05T13:47:05.999Z</time></trkpt><trkpt lat="-20.288240935262472" lon="44.310958081008046"><ele>4.0</ele><time>2026-04-05T13:47:06.999Z</time></trkpt><trkpt lat="-20.288326645320467" lon="44.31099220424225"><ele>4.0</ele><time>2026-04-05T13:47:07.999Z</time></trkpt><trkpt lat="-20.288410272664866" lon="44.31102372162693"><ele>4.666666666666666</ele><time>2026-04-05T13:47:08.999Z</time></trkpt><trkpt lat="-20.28848455350758" lon="44.311051522479815"><ele>5.333333333333333</ele><time>2026-04-05T13:47:09.999Z</time></trkpt><trkpt lat="-20.28855744158142" lon="44.311079109886784"><ele>6.0</ele><time>2026-04-05T13:47:10.999Z</time></trkpt><trkpt lat="-20.28862817477763" lon="44.31110765088559"><ele>6.666666666666666</ele><time>2026-04-05T13:47:11.999Z</time></trkpt><trkpt lat="-20.288703227554745" lon="44.31112769913401"><ele>7.333333333333333</ele><time>2026-04-05T13:47:12.999Z</time></trkpt><trkpt lat="-20.2887818298063" lon="44.31114416307933"><ele>8.0</ele><time>2026-04-05T13:47:13.999Z</time></trkpt><trkpt lat="-20.28886332406526" lon="44.31116492645414"><ele>8.333333333333332</ele><time>2026-04-05T13:47:14.999Z</time></trkpt><trkpt lat="-20.288945330427563" lon="44.31119314932067"><ele>8.666666666666666</ele><time>2026-04-05T13:47:15.999Z</time></trkpt><trkpt lat="-20.28902261567293" lon="44.311224816072226"><ele>9.0</ele><time>2026-04-05T13:47:16.999Z</time></trkpt><trkpt lat="-20.28909618304414" lon="44.311248085978306"><ele>9.333333333333334</ele><time>2026-04-05T13:47:17.999Z</time></trkpt><trkpt lat="-20.289169118288154" lon="44.31127041000004"><ele>9.666666666666668</ele><time>2026-04-05T13:47:18.999Z</time></trkpt><trkpt lat="-20.2892343236714" lon="44.31129031249705"><ele>10.0</ele><time>2026-04-05T13:47:19.999Z</time></trkpt><trkpt lat="-20.28929620425295" lon="44.31130381430628"><ele>10.0</ele><time>2026-04-05T13:47:20.999Z</time></trkpt><trkpt lat="-20.289359229857908" lon="44.311324886427194"><ele>10.0</ele><time>2026-04-05T13:47:21.999Z</time></trkpt><trkpt lat="-20.289420378581912" lon="44.31135335731397"><ele>10.0</ele><time>2026-04-05T13:47:22.999Z</time></trkpt><trkpt lat="-20.28948331499149" lon="44.31137749781479"><ele>10.0</ele><time>2026-04-05T13:47:23.999Z</time></trkpt><trkpt lat="-20.289550974016816" lon="44.311401703993525"><ele>10.0</ele><time>2026-04-05T13:47:24.999Z</time></trkpt><trkpt lat="-20.289616901678237" lon="44.31142804162028"><ele>10.0</ele><time>2026-04-05T13:47:25.999Z</time></trkpt><trkpt lat="-20.289684377334904" lon="44.31145277529935"><ele>10.0</ele><time>2026-04-05T13:47:26.999Z</time></trkpt><trkpt lat="-20.28975202854587" lon="44.31147611147343"><ele>9.5</ele><time>2026-04-05T13:47:27.999Z</time></trkpt><trkpt lat="-20.289821365400346" lon="44.31149401811457"><ele>9.0</ele><time>2026-04-05T13:47:28.999Z</time></trkpt><trkpt lat="-20.289894613664078" lon="44.31150066236986"><ele>8.5</ele><time>2026-04-05T13:47:29.999Z</time></trkpt><trkpt lat="-20.289972332037774" lon="44.31152035708802"><ele>8.0</ele><time>2026-04-05T13:47:30.999Z</time></trkpt><trkpt lat="-20.290044075903896" lon="44.311552799614034"><ele>7.500000000000001</ele><time>2026-04-05T13:47:31.999Z</time></trkpt><trkpt lat="-20.29011642228665" lon="44.311585009847704"><ele>7.0</ele><time>2026-04-05T13:47:32.999Z</time></trkpt><trkpt lat="-20.29018872709301" lon="44.311617688062555"><ele>7.0</ele><time>2026-04-05T13:47:33.999Z</time></trkpt><trkpt lat="-20.29024733601206" lon="44.31164440561328"><ele>6.999999999999999</ele><time>2026-04-05T13:47:34.999Z</time></trkpt><trkpt lat="-20.290309553459895" lon="44.311661482767285"><ele>6.999999999999999</ele><time>2026-04-05T13:47:35.999Z</time></trkpt><trkpt lat="-20.290419025252845" lon="44.31169114187988"><ele>7.0</ele><time>2026-04-05T13:47:37.999Z</time></trkpt><trkpt lat="-20.290504060118185" lon="44.31172887385748"><ele>7.0</ele><time>2026-04-05T13:47:39.999Z</time></trkpt><trkpt lat="-20.290615232159407" lon="44.31176810496359"><ele>7.285714285714286</ele><time>2026-04-05T13:47:41.999Z</time></trkpt><trkpt lat="-20.290686746166205" lon="44.311781450211384"><ele>7.571428571428571</ele><time>2026-04-05T13:47:42.999Z</time></trkpt><trkpt lat="-20.290753315307843" lon="44.31181486252651"><ele>7.857142857142858</ele><time>2026-04-05T13:47:43.999Z</time></trkpt><trkpt lat="-20.290824003432252" lon="44.31183868531423"><ele>8.142857142857142</ele><time>2026-04-05T13:47:44.999Z</time></trkpt><trkpt lat="-20.290898845792988" lon="44.31184813551764"><ele>8.428571428571429</ele><time>2026-04-05T13:47:45.999Z</time></trkpt><trkpt lat="-20.290973867773396" lon="44.31185820266192"><ele>8.714285714285715</ele><time>2026-04-05T13:47:46.999Z</time></trkpt><trkpt lat="-20.291042339835" lon="44.311872976224016"><ele>9.0</ele><time>2026-04-05T13:47:47.999Z</time></trkpt><trkpt lat="-20.291109759593727" lon="44.31188838872263"><ele>9.0</ele><time>2026-04-05T13:47:48.999Z</time></trkpt><trkpt lat="-20.291230661585296" lon="44.31192904022198"><ele>9.0</ele><time>2026-04-05T13:47:50.999Z</time></trkpt><trkpt lat="-20.291296531678434" lon="44.31195125738097"><ele>9.0</ele><time>2026-04-05T13:47:51.999Z</time></trkpt><trkpt lat="-20.29136059421723" lon="44.31197459609593"><ele>9.0</ele><time>2026-04-05T13:47:52.999Z</time></trkpt><trkpt lat="-20.291425512891387" lon="44.31199452977466"><ele>9.0</ele><time>2026-04-05T13:47:53.999Z</time></trkpt><trkpt lat="-20.29155348974936" lon="44.31204258143331"><ele>8.857142857142858</ele><time>2026-04-05T13:47:55.999Z</time></trkpt><trkpt lat="-20.291618977917025" lon="44.312061961431176"><ele>8.714285714285715</ele><time>2026-04-05T13:47:56.999Z</time></trkpt><trkpt lat="-20.291684239978792" lon="44.312081321442356"><ele>8.571428571428571</ele><time>2026-04-05T13:47:57.999Z</time></trkpt><trkpt lat="-20.291753904983732" lon="44.31210040702203"><ele>8.428571428571429</ele><time>2026-04-05T13:47:58.999Z</time></trkpt><trkpt lat="-20.291821115477948" lon="44.31212273220519"><ele>8.285714285714285</ele><time>2026-04-05T13:47:59.999Z</time></trkpt><trkpt lat="-20.291884670470537" lon="44.312148796510606"><ele>8.142857142857142</ele><time>2026-04-05T13:48:00.999Z</time></trkpt><trkpt lat="-20.291945081261098" lon="44.312175092292804"><ele>8.0</ele><time>2026-04-05T13:48:01.999Z</time></trkpt><trkpt lat="-20.292013721234728" lon="44.31219600481192"><ele>8.0</ele><time>2026-04-05T13:48:02.999Z</time></trkpt><trkpt lat="-20.29208129046721" lon="44.31221506929914"><ele>7.999999999999999</ele><time>2026-04-05T13:48:03.999Z</time></trkpt><trkpt lat="-20.292146973452756" lon="44.31224477068219"><ele>8.0</ele><time>2026-04-05T13:48:04.999Z</time></trkpt><trkpt lat="-20.292211460162285" lon="44.31227333127291"><ele>8.0</ele><time>2026-04-05T13:48:05.999Z</time></trkpt><trkpt lat="-20.29228108964408" lon="44.3123015753714"><ele>7.999999999999999</ele><time>2026-04-05T13:48:06.999Z</time></trkpt><trkpt lat="-20.29235004387966" lon="44.31231885606953"><ele>8.0</ele><time>2026-04-05T13:48:07.999Z</time></trkpt><trkpt lat="-20.29242284877428" lon="44.3123330516146"><ele>8.0</ele><time>2026-04-05T13:48:08.999Z</time></trkpt><trkpt lat="-20.292498054431245" lon="44.31235473918488"><ele>7.666666666666666</ele><time>2026-04-05T13:48:09.999Z</time></trkpt><trkpt lat="-20.29257493392413" lon="44.31237040764473"><ele>7.333333333333333</ele><time>2026-04-05T13:48:10.999Z</time></trkpt><trkpt lat="-20.29264623637605" lon="44.312388450559794"><ele>7.0</ele><time>2026-04-05T13:48:11.999Z</time></trkpt><trkpt lat="-20.292718245281858" lon="44.312413732959456"><ele>6.666666666666666</ele><time>2026-04-05T13:48:12.999Z</time></trkpt><trkpt lat="-20.292782719129207" lon="44.31243666254286"><ele>6.333333333333333</ele><time>2026-04-05T13:48:13.999Z</time></trkpt><trkpt lat="-20.292896255493204" lon="44.312463591847994"><ele>6.0</ele><time>2026-04-05T13:48:15.999Z</time></trkpt><trkpt lat="-20.292956173675066" lon="44.31248759512571"><ele>6.0</ele><time>2026-04-05T13:48:17.999Z</time></trkpt><trkpt lat="-20.293041842359177" lon="44.31249061325049"><ele>6.0</ele><time>2026-04-05T13:48:35.999Z</time></trkpt><trkpt lat="-20.29310154300019" lon="44.31241426799902"><ele>6.0</ele><time>2026-04-05T13:48:38.999Z</time></trkpt><trkpt lat="-20.293134299261617" lon="44.312314592176364"><ele>6.0</ele><time>2026-04-05T13:48:41.999Z</time></trkpt><trkpt lat="-20.29315632500311" lon="44.312243432607474"><ele>6.0</ele><time>2026-04-05T13:48:43.999Z</time></trkpt><trkpt lat="-20.293165687350292" lon="44.31214837267912"><ele>6.0</ele><time>2026-04-05T13:48:45.999Z</time></trkpt><trkpt lat="-20.293184129797975" lon="44.312078942840124"><ele>6.333333333333333</ele><time>2026-04-05T13:48:46.999Z</time></trkpt><trkpt lat="-20.29320950806029" lon="44.31201160036643"><ele>6.666666666666666</ele><time>2026-04-05T13:48:47.999Z</time></trkpt><trkpt lat="-20.29323111042453" lon="44.31193924163836"><ele>7.0</ele><time>2026-04-05T13:48:48.999Z</time></trkpt><trkpt lat="-20.293253669195614" lon="44.31186259864394"><ele>7.333333333333333</ele><time>2026-04-05T13:48:49.999Z</time></trkpt><trkpt lat="-20.29328513863298" lon="44.31177807315759"><ele>7.666666666666666</ele><time>2026-04-05T13:48:50.999Z</time></trkpt><trkpt lat="-20.29332110590389" lon="44.31168803478731"><ele>8.0</ele><time>2026-04-05T13:48:51.999Z</time></trkpt><trkpt lat="-20.293347434770308" lon="44.31161031843927"><ele>7.999999999999999</ele><time>2026-04-05T13:48:52.999Z</time></trkpt><trkpt lat="-20.293371799046177" lon="44.31154129861019"><ele>8.0</ele><time>2026-04-05T13:48:53.999Z</time></trkpt><trkpt lat="-20.29339752340879" lon="44.31147560077877"><ele>8.0</ele><time>2026-04-05T13:48:54.999Z</time></trkpt><trkpt lat="-20.293408205698523" lon="44.31139576749891"><ele>8.0</ele><time>2026-04-05T13:48:55.999Z</time></trkpt><trkpt lat="-20.293429818382563" lon="44.31131560835433"><ele>7.999999999999999</ele><time>2026-04-05T13:48:56.999Z</time></trkpt><trkpt lat="-20.293456543262618" lon="44.311233022826066"><ele>8.0</ele><time>2026-04-05T13:48:57.999Z</time></trkpt><trkpt lat="-20.293481674553338" lon="44.31114776040474"><ele>8.166666666666666</ele><time>2026-04-05T13:48:58.999Z</time></trkpt><trkpt lat="-20.29350510232396" lon="44.31106222582303"><ele>8.333333333333332</ele><time>2026-04-05T13:48:59.999Z</time></trkpt><trkpt lat="-20.293526639010455" lon="44.31098014301059"><ele>8.5</ele><time>2026-04-05T13:49:00.999Z</time></trkpt><trkpt lat="-20.293550554032223" lon="44.31090266177407"><ele>8.666666666666666</ele><time>2026-04-05T13:49:01.999Z</time></trkpt><trkpt lat="-20.29356982128622" lon="44.31082593513896"><ele>8.833333333333334</ele><time>2026-04-05T13:49:02.999Z</time></trkpt><trkpt lat="-20.293597040494472" lon="44.310755300561766"><ele>9.0</ele><time>2026-04-05T13:49:03.999Z</time></trkpt><trkpt lat="-20.293618126889175" lon="44.31068651524066"><ele>9.0</ele><time>2026-04-05T13:49:04.999Z</time></trkpt><trkpt lat="-20.29363731125744" lon="44.31061813453341"><ele>9.0</ele><time>2026-04-05T13:49:05.998Z</time></trkpt><trkpt lat="-20.29365967176108" lon="44.31054151122811"><ele>9.0</ele><time>2026-04-05T13:49:06.998Z</time></trkpt><trkpt lat="-20.29368238319082" lon="44.310458338690594"><ele>9.0</ele><time>2026-04-05T13:49:07.998Z</time></trkpt><trkpt lat="-20.293705738079154" lon="44.31037134207284"><ele>9.0</ele><time>2026-04-05T13:49:08.998Z</time></trkpt><trkpt lat="-20.293729669054116" lon="44.31028209046271"><ele>9.0</ele><time>2026-04-05T13:49:09.998Z</time></trkpt><trkpt lat="-20.29375588536624" lon="44.31019088273825"><ele>9.0</ele><time>2026-04-05T13:49:10.998Z</time></trkpt><trkpt lat="-20.293783024115385" lon="44.31009841468555"><ele>9.0</ele><time>2026-04-05T13:49:11.999Z</time></trkpt><trkpt lat="-20.293810132859356" lon="44.31000699471938"><ele>9.0</ele><time>2026-04-05T13:49:12.999Z</time></trkpt><trkpt lat="-20.293834187187123" lon="44.309918373444944"><ele>9.0</ele><time>2026-04-05T13:49:13.999Z</time></trkpt><trkpt lat="-20.293875811356056" lon="44.309759301737024"><ele>9.0</ele><time>2026-04-05T13:49:15.999Z</time></trkpt><trkpt lat="-20.29389892336293" lon="44.30967326242999"><ele>9.0</ele><time>2026-04-05T13:49:16.999Z</time></trkpt><trkpt lat="-20.293924988241248" lon="44.30959292873884"><ele>9.0</ele><time>2026-04-05T13:49:17.999Z</time></trkpt><trkpt lat="-20.293948503750247" lon="44.309510500598634"><ele>9.0</ele><time>2026-04-05T13:49:18.999Z</time></trkpt><trkpt lat="-20.293973394953728" lon="44.309426918906034"><ele>9.0</ele><time>2026-04-05T13:49:19.999Z</time></trkpt><trkpt lat="-20.29399851843043" lon="44.30934034885824"><ele>9.0</ele><time>2026-04-05T13:49:20.999Z</time></trkpt><trkpt lat="-20.294027557323837" lon="44.309251041997776"><ele>9.0</ele><time>2026-04-05T13:49:21.999Z</time></trkpt><trkpt lat="-20.294058576963707" lon="44.30916239202516"><ele>9.0</ele><time>2026-04-05T13:49:22.999Z</time></trkpt><trkpt lat="-20.294089598912844" lon="44.30907557746138"><ele>9.0</ele><time>2026-04-05T13:49:23.999Z</time></trkpt><trkpt lat="-20.294116238704888" lon="44.30898844824003"><ele>9.0</ele><time>2026-04-05T13:49:24.999Z</time></trkpt><trkpt lat="-20.294138515642086" lon="44.308898192406566"><ele>9.0</ele><time>2026-04-05T13:49:25.999Z</time></trkpt><trkpt lat="-20.294160487413194" lon="44.3088066750186"><ele>9.0</ele><time>2026-04-05T13:49:26.999Z</time></trkpt><trkpt lat="-20.294181848619598" lon="44.308713664802966"><ele>9.0</ele><time>2026-04-05T13:49:27.999Z</time></trkpt><trkpt lat="-20.294205358090977" lon="44.30861883791949"><ele>9.0</ele><time>2026-04-05T13:49:28.999Z</time></trkpt><trkpt lat="-20.294229595497473" lon="44.308523289643595"><ele>9.0</ele><time>2026-04-05T13:49:29.999Z</time></trkpt><trkpt lat="-20.2942599053375" lon="44.308426635315655"><ele>9.0</ele><time>2026-04-05T13:49:30.999Z</time></trkpt><trkpt lat="-20.294288981895882" lon="44.30832512077283"><ele>9.0</ele><time>2026-04-05T13:49:31.999Z</time></trkpt><trkpt lat="-20.29432062384591" lon="44.3082211699859"><ele>9.0</ele><time>2026-04-05T13:49:32.999Z</time></trkpt><trkpt lat="-20.29435215435574" lon="44.308117382848025"><ele>9.0</ele><time>2026-04-05T13:49:33.999Z</time></trkpt><trkpt lat="-20.29438441657372" lon="44.308011738195475"><ele>9.0</ele><time>2026-04-05T13:49:34.999Z</time></trkpt><trkpt lat="-20.294419623081716" lon="44.30790481372001"><ele>9.0</ele><time>2026-04-05T13:49:35.999Z</time></trkpt><trkpt lat="-20.29445854055916" lon="44.307799779459394"><ele>9.0</ele><time>2026-04-05T13:49:36.999Z</time></trkpt><trkpt lat="-20.294487382460964" lon="44.30769882896377"><ele>9.0</ele><time>2026-04-05T13:49:37.999Z</time></trkpt><trkpt lat="-20.294513376324275" lon="44.30758909986862"><ele>9.0</ele><time>2026-04-05T13:49:38.999Z</time></trkpt><trkpt lat="-20.294540225270826" lon="44.30748503739567"><ele>9.0</ele><time>2026-04-05T13:49:39.999Z</time></trkpt><trkpt lat="-20.29456292072028" lon="44.307392372428374"><ele>9.0</ele><time>2026-04-05T13:49:40.999Z</time></trkpt><trkpt lat="-20.294586079415918" lon="44.30729740744969"><ele>9.0</ele><time>2026-04-05T13:49:41.999Z</time></trkpt><trkpt lat="-20.29461698575254" lon="44.30720287458007"><ele>9.0</ele><time>2026-04-05T13:49:42.999Z</time></trkpt><trkpt lat="-20.294645884623336" lon="44.307104965141505"><ele>8.8</ele><time>2026-04-05T13:49:43.999Z</time></trkpt><trkpt lat="-20.294674390426092" lon="44.30700388880339"><ele>8.600000000000001</ele><time>2026-04-05T13:49:44.999Z</time></trkpt><trkpt lat="-20.294706693804567" lon="44.306902187167125"><ele>8.4</ele><time>2026-04-05T13:49:45.999Z</time></trkpt><trkpt lat="-20.29473824883325" lon="44.30679980575872"><ele>8.200000000000001</ele><time>2026-04-05T13:49:46.999Z</time></trkpt><trkpt lat="-20.294767751111742" lon="44.30669404794783"><ele>8.0</ele><time>2026-04-05T13:49:47.999Z</time></trkpt><trkpt lat="-20.294796731349823" lon="44.30658889741921"><ele>8.0</ele><time>2026-04-05T13:49:48.999Z</time></trkpt><trkpt lat="-20.294831067435375" lon="44.30648822731804"><ele>8.0</ele><time>2026-04-05T13:49:49.999Z</time></trkpt><trkpt lat="-20.294866361985157" lon="44.306386170421426"><ele>8.0</ele><time>2026-04-05T13:49:50.999Z</time></trkpt><trkpt lat="-20.294896925368178" lon="44.306283459406416"><ele>8.0</ele><time>2026-04-05T13:49:51.999Z</time></trkpt><trkpt lat="-20.294927034353265" lon="44.30618000513233"><ele>8.0</ele><time>2026-04-05T13:49:52.999Z</time></trkpt><trkpt lat="-20.294951452105785" lon="44.306073987362986"><ele>8.0</ele><time>2026-04-05T13:49:53.999Z</time></trkpt><trkpt lat="-20.294972037825517" lon="44.305964882298085"><ele>8.0</ele><time>2026-04-05T13:49:54.999Z</time></trkpt><trkpt lat="-20.29499923271369" lon="44.30585240934361"><ele>8.0</ele><time>2026-04-05T13:49:55.999Z</time></trkpt><trkpt lat="-20.29503705974383" lon="44.30573948184217"><ele>8.0</ele><time>2026-04-05T13:49:56.999Z</time></trkpt><trkpt lat="-20.295074370130624" lon="44.30562626942676"><ele>8.0</ele><time>2026-04-05T13:49:57.999Z</time></trkpt><trkpt lat="-20.29510064825367" lon="44.305509770469726"><ele>8.0</ele><time>2026-04-05T13:49:58.999Z</time></trkpt><trkpt lat="-20.29512167657297" lon="44.30539343752248"><ele>8.0</ele><time>2026-04-05T13:49:59.999Z</time></trkpt><trkpt lat="-20.295145634966893" lon="44.30527921805206"><ele>8.0</ele><time>2026-04-05T13:50:00.999Z</time></trkpt><trkpt lat="-20.29517232791437" lon="44.305166578565405"><ele>8.0</ele><time>2026-04-05T13:50:01.999Z</time></trkpt><trkpt lat="-20.295201358084753" lon="44.305057804764935"><ele>8.0</ele><time>2026-04-05T13:50:02.999Z</time></trkpt><trkpt lat="-20.295226146680463" lon="44.304949253287646"><ele>8.0</ele><time>2026-04-05T13:50:03.999Z</time></trkpt><trkpt lat="-20.295244311623986" lon="44.30484103607333"><ele>8.0</ele><time>2026-04-05T13:50:04.999Z</time></trkpt><trkpt lat="-20.295265021294046" lon="44.30473410346762"><ele>8.0</ele><time>2026-04-05T13:50:05.999Z</time></trkpt><trkpt lat="-20.295286686301374" lon="44.304628575731996"><ele>8.0</ele><time>2026-04-05T13:50:06.999Z</time></trkpt><trkpt lat="-20.29530565975613" lon="44.304522097053145"><ele>8.0</ele><time>2026-04-05T13:50:07.999Z</time></trkpt><trkpt lat="-20.29532507396297" lon="44.30441542915809"><ele>7.800000000000001</ele><time>2026-04-05T13:50:08.999Z</time></trkpt><trkpt lat="-20.29534147954622" lon="44.30430728934718"><ele>7.6000000000000005</ele><time>2026-04-05T13:50:09.999Z</time></trkpt><trkpt lat="-20.295361817435346" lon="44.304199031397935"><ele>7.3999999999999995</ele><time>2026-04-05T13:50:10.999Z</time></trkpt><trkpt lat="-20.29538631653691" lon="44.30409304648748"><ele>7.199999999999999</ele><time>2026-04-05T13:50:11.999Z</time></trkpt><trkpt lat="-20.295409256071938" lon="44.30398326795182"><ele>7.0</ele><time>2026-04-05T13:50:12.999Z</time></trkpt><trkpt lat="-20.295430566340606" lon="44.303873108904"><ele>7.000000000000001</ele><time>2026-04-05T13:50:13.999Z</time></trkpt><trkpt lat="-20.29544807667037" lon="44.30376735789708"><ele>7.0</ele><time>2026-04-05T13:50:14.999Z</time></trkpt><trkpt lat="-20.295463585250467" lon="44.30367143005048"><ele>7.0</ele><time>2026-04-05T13:50:15.999Z</time></trkpt><trkpt lat="-20.295480004829116" lon="44.303578129382274"><ele>7.0</ele><time>2026-04-05T13:50:16.999Z</time></trkpt><trkpt lat="-20.295495973290986" lon="44.30348875156888"><ele>7.000000000000001</ele><time>2026-04-05T13:50:17.999Z</time></trkpt><trkpt lat="-20.295507849151974" lon="44.303406233983104"><ele>7.0</ele><time>2026-04-05T13:50:18.999Z</time></trkpt><trkpt lat="-20.29551944169264" lon="44.30331594186478"><ele>7.0</ele><time>2026-04-05T13:50:19.999Z</time></trkpt><trkpt lat="-20.29553525987976" lon="44.30322198648882"><ele>6.999999999999999</ele><time>2026-04-05T13:50:20.999Z</time></trkpt><trkpt lat="-20.295552348696923" lon="44.303125417218666"><ele>6.999999999999999</ele><time>2026-04-05T13:50:21.999Z</time></trkpt><trkpt lat="-20.29557197706693" lon="44.30302518107742"><ele>7.0</ele><time>2026-04-05T13:50:22.999Z</time></trkpt><trkpt lat="-20.295591797321098" lon="44.30292126891409"><ele>7.0</ele><time>2026-04-05T13:50:23.999Z</time></trkpt><trkpt lat="-20.29561297653571" lon="44.302821177259"><ele>7.000000000000001</ele><time>2026-04-05T13:50:24.999Z</time></trkpt><trkpt lat="-20.295629089654696" lon="44.30272138499087"><ele>7.0</ele><time>2026-04-05T13:50:25.999Z</time></trkpt><trkpt lat="-20.295646513608872" lon="44.30262538033538"><ele>7.0</ele><time>2026-04-05T13:50:26.999Z</time></trkpt><trkpt lat="-20.29566638247202" lon="44.30253307862622"><ele>7.0</ele><time>2026-04-05T13:50:27.999Z</time></trkpt><trkpt lat="-20.29568989372083" lon="44.302443751142334"><ele>7.000000000000001</ele><time>2026-04-05T13:50:28.999Z</time></trkpt><trkpt lat="-20.295707850951274" lon="44.302355828118536"><ele>7.0</ele><time>2026-04-05T13:50:29.999Z</time></trkpt><trkpt lat="-20.295723146016574" lon="44.30226507854457"><ele>7.0</ele><time>2026-04-05T13:50:30.999Z</time></trkpt><trkpt lat="-20.295739224730966" lon="44.30217043086763"><ele>6.999999999999999</ele><time>2026-04-05T13:50:31.999Z</time></trkpt><trkpt lat="-20.295754828096637" lon="44.30207296726542"><ele>6.999999999999999</ele><time>2026-04-05T13:50:32.999Z</time></trkpt><trkpt lat="-20.2957705212909" lon="44.301973072527794"><ele>7.0</ele><time>2026-04-05T13:50:33.999Z</time></trkpt><trkpt lat="-20.29579063329009" lon="44.30187052628108"><ele>7.0</ele><time>2026-04-05T13:50:34.999Z</time></trkpt><trkpt lat="-20.295804448847033" lon="44.301766214653455"><ele>7.0</ele><time>2026-04-05T13:50:35.999Z</time></trkpt><trkpt lat="-20.295821525618038" lon="44.30166199311786"><ele>6.999999999999999</ele><time>2026-04-05T13:50:36.999Z</time></trkpt><trkpt lat="-20.295840412194377" lon="44.30155795109679"><ele>6.999999999999999</ele><time>2026-04-05T13:50:37.999Z</time></trkpt><trkpt lat="-20.29585710734712" lon="44.30145814028774"><ele>7.0</ele><time>2026-04-05T13:50:38.999Z</time></trkpt><trkpt lat="-20.295877569649097" lon="44.30136367775263"><ele>7.0</ele><time>2026-04-05T13:50:39.999Z</time></trkpt><trkpt lat="-20.295901759276212" lon="44.30126871070559"><ele>7.0</ele><time>2026-04-05T13:50:40.999Z</time></trkpt><trkpt lat="-20.29592384562233" lon="44.30117195314348"><ele>6.999999999999999</ele><time>2026-04-05T13:50:41.999Z</time></trkpt><trkpt lat="-20.29594537451849" lon="44.30107438916955"><ele>6.999999999999999</ele><time>2026-04-05T13:50:42.999Z</time></trkpt><trkpt lat="-20.295963422756586" lon="44.300973995307636"><ele>7.0</ele><time>2026-04-05T13:50:43.999Z</time></trkpt><trkpt lat="-20.29598282886977" lon="44.30087181519365"><ele>7.0</ele><time>2026-04-05T13:50:44.999Z</time></trkpt><trkpt lat="-20.29600324233311" lon="44.30076657365941"><ele>7.0</ele><time>2026-04-05T13:50:45.999Z</time></trkpt><trkpt lat="-20.296012385157585" lon="44.30065951353232"><ele>6.999999999999999</ele><time>2026-04-05T13:50:46.999Z</time></trkpt><trkpt lat="-20.29602252548664" lon="44.30055608199659"><ele>6.999999999999999</ele><time>2026-04-05T13:50:47.999Z</time></trkpt><trkpt lat="-20.296044284992522" lon="44.30045389862038"><ele>7.0</ele><time>2026-04-05T13:50:48.999Z</time></trkpt><trkpt lat="-20.296065968978763" lon="44.30035117700752"><ele>7.0</ele><time>2026-04-05T13:50:49.999Z</time></trkpt><trkpt lat="-20.29608444580401" lon="44.300253401517196"><ele>6.6</ele><time>2026-04-05T13:50:50.999Z</time></trkpt><trkpt lat="-20.296102862355987" lon="44.300157805143606"><ele>6.199999999999999</ele><time>2026-04-05T13:50:51.999Z</time></trkpt><trkpt lat="-20.2961219109637" lon="44.300061512065135"><ele>5.8</ele><time>2026-04-05T13:50:52.999Z</time></trkpt><trkpt lat="-20.296141432514744" lon="44.29996735406812"><ele>5.4</ele><time>2026-04-05T13:50:53.999Z</time></trkpt><trkpt lat="-20.296159061870256" lon="44.29987177115303"><ele>5.0</ele><time>2026-04-05T13:50:54.999Z</time></trkpt><trkpt lat="-20.296177420561214" lon="44.29977727798498"><ele>5.166666666666667</ele><time>2026-04-05T13:50:55.999Z</time></trkpt><trkpt lat="-20.296197864138293" lon="44.29968531417473"><ele>5.333333333333334</ele><time>2026-04-05T13:50:56.999Z</time></trkpt><trkpt lat="-20.296216608879167" lon="44.299596409805034"><ele>5.5</ele><time>2026-04-05T13:50:57.999Z</time></trkpt><trkpt lat="-20.296226388713016" lon="44.299507576445436"><ele>5.666666666666667</ele><time>2026-04-05T13:50:58.999Z</time></trkpt><trkpt lat="-20.29623296447102" lon="44.29941810211557"><ele>5.833333333333333</ele><time>2026-04-05T13:50:59.999Z</time></trkpt><trkpt lat="-20.29624885978003" lon="44.299330726965906"><ele>6.0</ele><time>2026-04-05T13:51:00.999Z</time></trkpt><trkpt lat="-20.296263450511418" lon="44.29924489057081"><ele>6.0</ele><time>2026-04-05T13:51:01.999Z</time></trkpt><trkpt lat="-20.29627548523554" lon="44.299156857119954"><ele>6.0</ele><time>2026-04-05T13:51:02.999Z</time></trkpt><trkpt lat="-20.296289198986603" lon="44.299070800328245"><ele>6.0</ele><time>2026-04-05T13:51:03.999Z</time></trkpt><trkpt lat="-20.296306433724062" lon="44.29898626068005"><ele>6.0</ele><time>2026-04-05T13:51:04.999Z</time></trkpt><trkpt lat="-20.29632270198499" lon="44.298900216642025"><ele>6.0</ele><time>2026-04-05T13:51:05.999Z</time></trkpt><trkpt lat="-20.296340282531588" lon="44.29881326210221"><ele>6.0</ele><time>2026-04-05T13:51:06.999Z</time></trkpt><trkpt lat="-20.296351840936264" lon="44.29872890812694"><ele>6.166666666666667</ele><time>2026-04-05T13:51:07.999Z</time></trkpt><trkpt lat="-20.296365473872882" lon="44.29864095462129"><ele>6.333333333333334</ele><time>2026-04-05T13:51:08.999Z</time></trkpt><trkpt lat="-20.296382099484198" lon="44.29855027798241"><ele>6.5</ele><time>2026-04-05T13:51:09.999Z</time></trkpt><trkpt lat="-20.296400378141673" lon="44.29845778129098"><ele>6.666666666666667</ele><time>2026-04-05T13:51:10.999Z</time></trkpt><trkpt lat="-20.29641822035936" lon="44.298363680694855"><ele>6.833333333333334</ele><time>2026-04-05T13:51:11.999Z</time></trkpt><trkpt lat="-20.296433340031157" lon="44.29826800475276"><ele>7.0</ele><time>2026-04-05T13:51:12.999Z</time></trkpt><trkpt lat="-20.29644832500844" lon="44.29817091286982"><ele>7.166666666666667</ele><time>2026-04-05T13:51:13.999Z</time></trkpt><trkpt lat="-20.296465794129887" lon="44.298072552270234"><ele>7.333333333333334</ele><time>2026-04-05T13:51:14.999Z</time></trkpt><trkpt lat="-20.29648285023571" lon="44.29798035199313"><ele>7.5</ele><time>2026-04-05T13:51:15.999Z</time></trkpt><trkpt lat="-20.29649887004381" lon="44.297890708845514"><ele>7.666666666666666</ele><time>2026-04-05T13:51:16.999Z</time></trkpt><trkpt lat="-20.29651696318155" lon="44.29780446645434"><ele>7.833333333333333</ele><time>2026-04-05T13:51:17.999Z</time></trkpt><trkpt lat="-20.296534651582203" lon="44.2977182833745"><ele>8.0</ele><time>2026-04-05T13:51:18.999Z</time></trkpt><trkpt lat="-20.29655188461168" lon="44.297634666206356"><ele>8.0</ele><time>2026-04-05T13:51:19.999Z</time></trkpt><trkpt lat="-20.296563964444946" lon="44.29755726333211"><ele>7.999999999999999</ele><time>2026-04-05T13:51:20.999Z</time></trkpt><trkpt lat="-20.29657488973034" lon="44.297482801730595"><ele>8.0</ele><time>2026-04-05T13:51:21.999Z</time></trkpt><trkpt lat="-20.296591520298353" lon="44.29741014091001"><ele>8.0</ele><time>2026-04-05T13:51:22.999Z</time></trkpt><trkpt lat="-20.296609767300147" lon="44.29733710702579"><ele>7.999999999999999</ele><time>2026-04-05T13:51:23.999Z</time></trkpt><trkpt lat="-20.29662089338971" lon="44.29726812138145"><ele>8.0</ele><time>2026-04-05T13:51:24.999Z</time></trkpt><trkpt lat="-20.296631663295297" lon="44.297198744468474"><ele>8.0</ele><time>2026-04-05T13:51:25.999Z</time></trkpt><trkpt lat="-20.296646896116673" lon="44.297129510754445"><ele>8.166666666666666</ele><time>2026-04-05T13:51:26.999Z</time></trkpt><trkpt lat="-20.296662966539333" lon="44.297058012701555"><ele>8.333333333333332</ele><time>2026-04-05T13:51:27.999Z</time></trkpt><trkpt lat="-20.296673293467304" lon="44.29698066347237"><ele>8.5</ele><time>2026-04-05T13:51:28.999Z</time></trkpt><trkpt lat="-20.29668278685976" lon="44.29690134180866"><ele>8.666666666666666</ele><time>2026-04-05T13:51:29.999Z</time></trkpt><trkpt lat="-20.296696998326365" lon="44.296818263743226"><ele>8.833333333333334</ele><time>2026-04-05T13:51:30.999Z</time></trkpt><trkpt lat="-20.296713845965794" lon="44.29673322566578"><ele>9.0</ele><time>2026-04-05T13:51:31.999Z</time></trkpt><trkpt lat="-20.296733907786553" lon="44.29664516990779"><ele>9.0</ele><time>2026-04-05T13:51:32.999Z</time></trkpt><trkpt lat="-20.296754272937665" lon="44.296554280154446"><ele>9.0</ele><time>2026-04-05T13:51:33.999Z</time></trkpt><trkpt lat="-20.29677503580225" lon="44.29646057208816"><ele>9.0</ele><time>2026-04-05T13:51:34.999Z</time></trkpt><trkpt lat="-20.29679718013876" lon="44.29636765803303"><ele>9.0</ele><time>2026-04-05T13:51:35.999Z</time></trkpt><trkpt lat="-20.29681746798898" lon="44.296274145191106"><ele>9.0</ele><time>2026-04-05T13:51:36.999Z</time></trkpt><trkpt lat="-20.296833744227307" lon="44.29618126474017"><ele>9.0</ele><time>2026-04-05T13:51:37.999Z</time></trkpt><trkpt lat="-20.296841161077843" lon="44.296087913978894"><ele>8.833333333333334</ele><time>2026-04-05T13:51:38.999Z</time></trkpt><trkpt lat="-20.29684889400948" lon="44.29599712043799"><ele>8.666666666666666</ele><time>2026-04-05T13:51:39.999Z</time></trkpt><trkpt lat="-20.296863266217056" lon="44.295910133671356"><ele>8.5</ele><time>2026-04-05T13:51:40.999Z</time></trkpt><trkpt lat="-20.296882038027253" lon="44.295827732522"><ele>8.333333333333332</ele><time>2026-04-05T13:51:41.999Z</time></trkpt><trkpt lat="-20.29689536126899" lon="44.29574317254005"><ele>8.166666666666666</ele><time>2026-04-05T13:51:42.999Z</time></trkpt><trkpt lat="-20.29690877078261" lon="44.29565512286077"><ele>8.0</ele><time>2026-04-05T13:51:43.999Z</time></trkpt><trkpt lat="-20.296923828468564" lon="44.29556662034155"><ele>7.999999999999999</ele><time>2026-04-05T13:51:44.999Z</time></trkpt><trkpt lat="-20.29694064867809" lon="44.29547791410642"><ele>8.0</ele><time>2026-04-05T13:51:45.999Z</time></trkpt><trkpt lat="-20.296953793021874" lon="44.29539564277406"><ele>8.0</ele><time>2026-04-05T13:51:46.999Z</time></trkpt><trkpt lat="-20.29696842809189" lon="44.29532127737659"><ele>8.0</ele><time>2026-04-05T13:51:47.999Z</time></trkpt><trkpt lat="-20.296989818931284" lon="44.29525101177041"><ele>7.999999999999999</ele><time>2026-04-05T13:51:48.999Z</time></trkpt><trkpt lat="-20.29701407000718" lon="44.29517270865882"><ele>8.0</ele><time>2026-04-05T13:51:49.999Z</time></trkpt><trkpt lat="-20.2970281894803" lon="44.2950859044743"><ele>8.0</ele><time>2026-04-05T13:51:50.999Z</time></trkpt><trkpt lat="-20.297034369562716" lon="44.294988157934185"><ele>8.0</ele><time>2026-04-05T13:51:51.999Z</time></trkpt><trkpt lat="-20.297053686854976" lon="44.29488713957815"><ele>8.0</ele><time>2026-04-05T13:51:52.999Z</time></trkpt><trkpt lat="-20.29708146839881" lon="44.29477699191859"><ele>8.0</ele><time>2026-04-05T13:51:53.999Z</time></trkpt><trkpt lat="-20.297106129929485" lon="44.29465430195887"><ele>8.0</ele><time>2026-04-05T13:51:54.999Z</time></trkpt><trkpt lat="-20.297125145728096" lon="44.29452919296952"><ele>7.5</ele><time>2026-04-05T13:51:55.999Z</time></trkpt><trkpt lat="-20.297147791295732" lon="44.294402789330874"><ele>7.0</ele><time>2026-04-05T13:51:56.999Z</time></trkpt><trkpt lat="-20.29717552722776" lon="44.294275306562675"><ele>6.5</ele><time>2026-04-05T13:51:57.999Z</time></trkpt><trkpt lat="-20.297199435716365" lon="44.294149068121214"><ele>6.0</ele><time>2026-04-05T13:51:58.999Z</time></trkpt><trkpt lat="-20.297219782986318" lon="44.29401850482823"><ele>5.25</ele><time>2026-04-05T13:51:59.999Z</time></trkpt><trkpt lat="-20.297230603084433" lon="44.29388710788543"><ele>4.5</ele><time>2026-04-05T13:52:00.999Z</time></trkpt><trkpt lat="-20.29724842703855" lon="44.29375879654454"><ele>3.75</ele><time>2026-04-05T13:52:01.999Z</time></trkpt><trkpt lat="-20.297272994503135" lon="44.29363324561023"><ele>3.0</ele><time>2026-04-05T13:52:02.999Z</time></trkpt><trkpt lat="-20.297295790282867" lon="44.29351846809952"><ele>3.0</ele><time>2026-04-05T13:52:03.999Z</time></trkpt><trkpt lat="-20.29731832950359" lon="44.29340357565708"><ele>3.0</ele><time>2026-04-05T13:52:04.999Z</time></trkpt><trkpt lat="-20.297339821232672" lon="44.29329368511195"><ele>3.0</ele><time>2026-04-05T13:52:05.999Z</time></trkpt><trkpt lat="-20.29736382190883" lon="44.29318726618157"><ele>3.0</ele><time>2026-04-05T13:52:06.999Z</time></trkpt><trkpt lat="-20.29738404949766" lon="44.29308117634003"><ele>3.0</ele><time>2026-04-05T13:52:07.999Z</time></trkpt><trkpt lat="-20.297404750867372" lon="44.292972663582326"><ele>2.8</ele><time>2026-04-05T13:52:08.999Z</time></trkpt><trkpt lat="-20.297422028123787" lon="44.29285982158145"><ele>2.5999999999999996</ele><time>2026-04-05T13:52:09.999Z</time></trkpt><trkpt lat="-20.29743639801879" lon="44.292741165903195"><ele>2.4000000000000004</ele><time>2026-04-05T13:52:10.999Z</time></trkpt><trkpt lat="-20.297451025497303" lon="44.292620213449595"><ele>2.2</ele><time>2026-04-05T13:52:11.999Z</time></trkpt><trkpt lat="-20.29747289634453" lon="44.2925020872128"><ele>2.0</ele><time>2026-04-05T13:52:12.999Z</time></trkpt><trkpt lat="-20.297495315628392" lon="44.29238316695659"><ele>2.0</ele><time>2026-04-05T13:52:13.999Z</time></trkpt><trkpt lat="-20.297523187567318" lon="44.29226483668106"><ele>2.0</ele><time>2026-04-05T13:52:14.999Z</time></trkpt><trkpt lat="-20.297551339386672" lon="44.29214859552507"><ele>2.0</ele><time>2026-04-05T13:52:15.999Z</time></trkpt><trkpt lat="-20.29757257893231" lon="44.29203037341676"><ele>2.0</ele><time>2026-04-05T13:52:16.999Z</time></trkpt><trkpt lat="-20.297591436789762" lon="44.291912368681054"><ele>2.2</ele><time>2026-04-05T13:52:17.999Z</time></trkpt><trkpt lat="-20.29760910286874" lon="44.29179743267945"><ele>2.4000000000000004</ele><time>2026-04-05T13:52:18.999Z</time></trkpt><trkpt lat="-20.297626592933383" lon="44.29168775935427"><ele>2.5999999999999996</ele><time>2026-04-05T13:52:19.999Z</time></trkpt><trkpt lat="-20.297645031251726" lon="44.291580834454756"><ele>2.8</ele><time>2026-04-05T13:52:20.999Z</time></trkpt><trkpt lat="-20.297662458408748" lon="44.291480601058076"><ele>3.0</ele><time>2026-04-05T13:52:21.999Z</time></trkpt><trkpt lat="-20.29767373965556" lon="44.2913900348697"><ele>3.0</ele><time>2026-04-05T13:52:22.999Z</time></trkpt><trkpt lat="-20.297683421086138" lon="44.29131067381298"><ele>3.0</ele><time>2026-04-05T13:52:23.999Z</time></trkpt><trkpt lat="-20.297699441947074" lon="44.291239169173934"><ele>3.0</ele><time>2026-04-05T13:52:24.999Z</time></trkpt><trkpt lat="-20.29772659278594" lon="44.291117361284115"><ele>3.0</ele><time>2026-04-05T13:52:26.999Z</time></trkpt><trkpt lat="-20.297747324508755" lon="44.29100324220671"><ele>3.0</ele><time>2026-04-05T13:52:28.999Z</time></trkpt><trkpt lat="-20.297762408064997" lon="44.29093618907589"><ele>3.0</ele><time>2026-04-05T13:52:29.999Z</time></trkpt><trkpt lat="-20.297774617482823" lon="44.29086083346834"><ele>3.0</ele><time>2026-04-05T13:52:30.999Z</time></trkpt><trkpt lat="-20.297786917258247" lon="44.29077722606489"><ele>3.0</ele><time>2026-04-05T13:52:31.999Z</time></trkpt><trkpt lat="-20.297804338079867" lon="44.290689067788236"><ele>3.0</ele><time>2026-04-05T13:52:32.999Z</time></trkpt><trkpt lat="-20.297824713842402" lon="44.29060000161194"><ele>3.0</ele><time>2026-04-05T13:52:33.999Z</time></trkpt><trkpt lat="-20.297840308981467" lon="44.2905139160776"><ele>3.0</ele><time>2026-04-05T13:52:34.999Z</time></trkpt><trkpt lat="-20.297850460485954" lon="44.29043301484272"><ele>3.0</ele><time>2026-04-05T13:52:35.999Z</time></trkpt><trkpt lat="-20.29785893374263" lon="44.290351817403575"><ele>2.3333333333333335</ele><time>2026-04-05T13:52:36.999Z</time></trkpt><trkpt lat="-20.297867764998813" lon="44.29027003764437"><ele>1.6666666666666667</ele><time>2026-04-05T13:52:37.999Z</time></trkpt><trkpt lat="-20.2978815047331" lon="44.29018863536937"><ele>1.0</ele><time>2026-04-05T13:52:38.999Z</time></trkpt><trkpt lat="-20.297898119879438" lon="44.290106077255835"><ele>0.33333333333333337</ele><time>2026-04-05T13:52:39.999Z</time></trkpt><trkpt lat="-20.2979175972692" lon="44.290022608313436"><ele>-0.33333333333333326</ele><time>2026-04-05T13:52:40.999Z</time></trkpt><trkpt lat="-20.297936391345278" lon="44.28993777521569"><ele>-1.0</ele><time>2026-04-05T13:52:41.999Z</time></trkpt><trkpt lat="-20.297953372810028" lon="44.28985271330072"><ele>-0.9999999999999999</ele><time>2026-04-05T13:52:42.999Z</time></trkpt><trkpt lat="-20.29796586234199" lon="44.28976456146036"><ele>-1.0</ele><time>2026-04-05T13:52:43.999Z</time></trkpt><trkpt lat="-20.297978030229626" lon="44.28967444407286"><ele>-1.0</ele><time>2026-04-05T13:52:44.999Z</time></trkpt><trkpt lat="-20.297994981903987" lon="44.289583918164254"><ele>-1.0</ele><time>2026-04-05T13:52:45.999Z</time></trkpt><trkpt lat="-20.298012549131876" lon="44.28949169496661"><ele>-0.9999999999999999</ele><time>2026-04-05T13:52:46.999Z</time></trkpt><trkpt lat="-20.29802863361219" lon="44.289396339759065"><ele>-1.0</ele><time>2026-04-05T13:52:47.999Z</time></trkpt><trkpt lat="-20.298046564375184" lon="44.289298147525265"><ele>-1.0</ele><time>2026-04-05T13:52:48.999Z</time></trkpt><trkpt lat="-20.298067894471203" lon="44.28919909436027"><ele>-1.0</ele><time>2026-04-05T13:52:49.999Z</time></trkpt><trkpt lat="-20.298087740416772" lon="44.289098078305344"><ele>-1.0</ele><time>2026-04-05T13:52:50.999Z</time></trkpt><trkpt lat="-20.298110527619446" lon="44.28899857211161"><ele>-1.0</ele><time>2026-04-05T13:52:51.999Z</time></trkpt><trkpt lat="-20.298132628408005" lon="44.28890128297387"><ele>-1.0</ele><time>2026-04-05T13:52:52.999Z</time></trkpt><trkpt lat="-20.298154354058195" lon="44.28880365189613"><ele>-0.9999999999999999</ele><time>2026-04-05T13:52:53.999Z</time></trkpt><trkpt lat="-20.29817348006974" lon="44.28870745368739"><ele>-1.0</ele><time>2026-04-05T13:52:54.999Z</time></trkpt><trkpt lat="-20.298185438189098" lon="44.288611151830544"><ele>-1.0</ele><time>2026-04-05T13:52:55.999Z</time></trkpt><trkpt lat="-20.298194953793825" lon="44.288516994649086"><ele>-1.0</ele><time>2026-04-05T13:52:56.999Z</time></trkpt><trkpt lat="-20.29820808875731" lon="44.288424829770534"><ele>-0.9999999999999999</ele><time>2026-04-05T13:52:57.999Z</time></trkpt><trkpt lat="-20.29822425145371" lon="44.28833245506044"><ele>-1.0</ele><time>2026-04-05T13:52:58.999Z</time></trkpt><trkpt lat="-20.29824408250958" lon="44.28824076063791"><ele>-0.9999999999999999</ele><time>2026-04-05T13:52:59.999Z</time></trkpt><trkpt lat="-20.298263591296955" lon="44.28814924633458"><ele>-1.0</ele><time>2026-04-05T13:53:00.999Z</time></trkpt><trkpt lat="-20.29828157751699" lon="44.288056324967336"><ele>-1.0</ele><time>2026-04-05T13:53:01.999Z</time></trkpt><trkpt lat="-20.298300950101464" lon="44.287962930421656"><ele>-1.0</ele><time>2026-04-05T13:53:02.999Z</time></trkpt><trkpt lat="-20.29831112468207" lon="44.287869761498435"><ele>-0.9999999999999999</ele><time>2026-04-05T13:53:03.999Z</time></trkpt><trkpt lat="-20.298319659471428" lon="44.28777241599173"><ele>-1.0</ele><time>2026-04-05T13:53:04.999Z</time></trkpt><trkpt lat="-20.29833272259491" lon="44.28767630720132"><ele>-1.1666666666666665</ele><time>2026-04-05T13:53:05.999Z</time></trkpt><trkpt lat="-20.29834911296014" lon="44.287581231729604"><ele>-1.3333333333333333</ele><time>2026-04-05T13:53:06.999Z</time></trkpt><trkpt lat="-20.298368172522345" lon="44.28748766195271"><ele>-1.5</ele><time>2026-04-05T13:53:07.999Z</time></trkpt><trkpt lat="-20.298395438713985" lon="44.28739772154126"><ele>-1.6666666666666665</ele><time>2026-04-05T13:53:08.999Z</time></trkpt><trkpt lat="-20.2984219240262" lon="44.287307525022"><ele>-1.8333333333333333</ele><time>2026-04-05T13:53:09.999Z</time></trkpt><trkpt lat="-20.298445112363588" lon="44.28721540163876"><ele>-2.0</ele><time>2026-04-05T13:53:10.999Z</time></trkpt><trkpt lat="-20.29846073561293" lon="44.287119391210005"><ele>-0.6000000000000001</ele><time>2026-04-05T13:53:11.999Z</time></trkpt><trkpt lat="-20.298473212330585" lon="44.2870214280521"><ele>0.7999999999999998</ele><time>2026-04-05T13:53:12.999Z</time></trkpt><trkpt lat="-20.29848351015276" lon="44.28692080288174"><ele>2.2</ele><time>2026-04-05T13:53:13.999Z</time></trkpt><trkpt lat="-20.29849541566798" lon="44.2868167496784"><ele>3.6</ele><time>2026-04-05T13:53:14.999Z</time></trkpt><trkpt lat="-20.298510839375925" lon="44.2867149557581"><ele>5.0</ele><time>2026-04-05T13:53:15.999Z</time></trkpt><trkpt lat="-20.29852725683227" lon="44.28661439214013"><ele>5.0</ele><time>2026-04-05T13:53:16.999Z</time></trkpt><trkpt lat="-20.298551211447688" lon="44.286514297868536"><ele>5.0</ele><time>2026-04-05T13:53:17.999Z</time></trkpt><trkpt lat="-20.29857492681176" lon="44.28641247414671"><ele>5.0</ele><time>2026-04-05T13:53:18.999Z</time></trkpt><trkpt lat="-20.298601582176207" lon="44.28630781313201"><ele>5.0</ele><time>2026-04-05T13:53:19.999Z</time></trkpt><trkpt lat="-20.298622448059223" lon="44.28620829820214"><ele>5.0</ele><time>2026-04-05T13:53:20.999Z</time></trkpt><trkpt lat="-20.29863009756496" lon="44.286104520079675"><ele>4.8</ele><time>2026-04-05T13:53:21.999Z</time></trkpt><trkpt lat="-20.298644664631205" lon="44.285993920444064"><ele>4.6</ele><time>2026-04-05T13:53:22.999Z</time></trkpt><trkpt lat="-20.298656595740784" lon="44.28588193190882"><ele>4.4</ele><time>2026-04-05T13:53:23.999Z</time></trkpt><trkpt lat="-20.298664723547095" lon="44.285768556315254"><ele>4.2</ele><time>2026-04-05T13:53:24.999Z</time></trkpt><trkpt lat="-20.298671424174238" lon="44.28565233672599"><ele>4.0</ele><time>2026-04-05T13:53:25.999Z</time></trkpt><trkpt lat="-20.298675423179667" lon="44.285534815531314"><ele>3.6</ele><time>2026-04-05T13:53:26.999Z</time></trkpt><trkpt lat="-20.298675376340288" lon="44.28541699757133"><ele>3.2</ele><time>2026-04-05T13:53:27.999Z</time></trkpt><trkpt lat="-20.298670911937545" lon="44.285297775061885"><ele>2.8000000000000003</ele><time>2026-04-05T13:53:28.999Z</time></trkpt><trkpt lat="-20.29866188623363" lon="44.28517803297987"><ele>2.4000000000000004</ele><time>2026-04-05T13:53:29.999Z</time></trkpt><trkpt lat="-20.29864579636862" lon="44.28505761189337"><ele>2.0</ele><time>2026-04-05T13:53:30.999Z</time></trkpt><trkpt lat="-20.298624453358553" lon="44.2849370506642"><ele>2.0</ele><time>2026-04-05T13:53:31.999Z</time></trkpt><trkpt lat="-20.298596206840017" lon="44.28481797121753"><ele>2.0</ele><time>2026-04-05T13:53:32.999Z</time></trkpt><trkpt lat="-20.298565122794333" lon="44.28470069315768"><ele>2.0</ele><time>2026-04-05T13:53:33.999Z</time></trkpt><trkpt lat="-20.29853094597194" lon="44.28459001742246"><ele>2.0</ele><time>2026-04-05T13:53:34.999Z</time></trkpt><trkpt lat="-20.29849590220573" lon="44.28448298255215"><ele>2.0</ele><time>2026-04-05T13:53:35.999Z</time></trkpt><trkpt lat="-20.298458861712717" lon="44.28437935256749"><ele>2.4000000000000004</ele><time>2026-04-05T13:53:36.999Z</time></trkpt><trkpt lat="-20.29841779516119" lon="44.284279452797854"><ele>2.8000000000000003</ele><time>2026-04-05T13:53:37.999Z</time></trkpt><trkpt lat="-20.298371521809067" lon="44.28418324595294"><ele>3.2</ele><time>2026-04-05T13:53:38.999Z</time></trkpt><trkpt lat="-20.298321324497945" lon="44.28409323553843"><ele>3.6</ele><time>2026-04-05T13:53:39.999Z</time></trkpt><trkpt lat="-20.298263242560612" lon="44.28400678364179"><ele>4.0</ele><time>2026-04-05T13:53:40.999Z</time></trkpt><trkpt lat="-20.298210035744674" lon="44.28391983268034"><ele>4.0</ele><time>2026-04-05T13:53:41.999Z</time></trkpt><trkpt lat="-20.298153372068256" lon="44.28383563238554"><ele>4.0</ele><time>2026-04-05T13:53:42.999Z</time></trkpt><trkpt lat="-20.298096298876057" lon="44.28375350929815"><ele>4.0</ele><time>2026-04-05T13:53:43.999Z</time></trkpt><trkpt lat="-20.298038831235896" lon="44.283671447754585"><ele>4.0</ele><time>2026-04-05T13:53:44.999Z</time></trkpt><trkpt lat="-20.297981949793463" lon="44.28359060990368"><ele>4.0</ele><time>2026-04-05T13:53:45.999Z</time></trkpt><trkpt lat="-20.297925612091802" lon="44.28351230531815"><ele>3.833333333333333</ele><time>2026-04-05T13:53:46.999Z</time></trkpt><trkpt lat="-20.29787053656374" lon="44.28344278254372"><ele>3.6666666666666665</ele><time>2026-04-05T13:53:47.999Z</time></trkpt><trkpt lat="-20.29782150435933" lon="44.28337197229056"><ele>3.5</ele><time>2026-04-05T13:53:48.999Z</time></trkpt><trkpt lat="-20.297769415765124" lon="44.28329799437625"><ele>3.333333333333333</ele><time>2026-04-05T13:53:49.999Z</time></trkpt><trkpt lat="-20.297713582364512" lon="44.28323163764656"><ele>3.1666666666666665</ele><time>2026-04-05T13:53:50.999Z</time></trkpt><trkpt lat="-20.29766135319351" lon="44.283164486624244"><ele>3.0</ele><time>2026-04-05T13:53:51.999Z</time></trkpt><trkpt lat="-20.29761183006488" lon="44.283091310621856"><ele>3.5</ele><time>2026-04-05T13:53:52.999Z</time></trkpt><trkpt lat="-20.297562476120987" lon="44.2830178361351"><ele>4.0</ele><time>2026-04-05T13:53:53.999Z</time></trkpt><trkpt lat="-20.29751432235168" lon="44.28295028417716"><ele>4.5</ele><time>2026-04-05T13:53:54.999Z</time></trkpt><trkpt lat="-20.297471134917128" lon="44.28288699280377"><ele>5.0</ele><time>2026-04-05T13:53:55.999Z</time></trkpt><trkpt lat="-20.297429990133832" lon="44.28282147957401"><ele>5.5</ele><time>2026-04-05T13:53:56.999Z</time></trkpt><trkpt lat="-20.297388165555514" lon="44.28275733217817"><ele>6.0</ele><time>2026-04-05T13:53:57.999Z</time></trkpt><trkpt lat="-20.297340127339652" lon="44.28268861670663"><ele>6.0</ele><time>2026-04-05T13:53:58.999Z</time></trkpt><trkpt lat="-20.29728540256235" lon="44.282615169787626"><ele>6.0</ele><time>2026-04-05T13:53:59.999Z</time></trkpt><trkpt lat="-20.29722757132885" lon="44.282536559330204"><ele>6.0</ele><time>2026-04-05T13:54:00.999Z</time></trkpt><trkpt lat="-20.297169115239985" lon="44.282457400095566"><ele>6.0</ele><time>2026-04-05T13:54:01.999Z</time></trkpt><trkpt lat="-20.297116332077053" lon="44.28238723245753"><ele>6.0</ele><time>2026-04-05T13:54:02.999Z</time></trkpt><trkpt lat="-20.29706887391841" lon="44.28232086862993"><ele>6.0</ele><time>2026-04-05T13:54:03.999Z</time></trkpt><trkpt lat="-20.297025034707588" lon="44.28226260166498"><ele>5.666666666666667</ele><time>2026-04-05T13:54:04.999Z</time></trkpt><trkpt lat="-20.296979621143624" lon="44.28221116267293"><ele>5.333333333333333</ele><time>2026-04-05T13:54:05.999Z</time></trkpt><trkpt lat="-20.296894470816977" lon="44.282116372729774"><ele>5.0</ele><time>2026-04-05T13:54:07.999Z</time></trkpt><trkpt lat="-20.296852777970148" lon="44.282060924517616"><ele>4.666666666666666</ele><time>2026-04-05T13:54:08.999Z</time></trkpt><trkpt lat="-20.296812486452282" lon="44.28200193934068"><ele>4.333333333333333</ele><time>2026-04-05T13:54:09.999Z</time></trkpt><trkpt lat="-20.296770023984394" lon="44.28194007967856"><ele>4.0</ele><time>2026-04-05T13:54:10.999Z</time></trkpt><trkpt lat="-20.296721089280062" lon="44.28187962981014"><ele>4.0</ele><time>2026-04-05T13:54:11.999Z</time></trkpt><trkpt lat="-20.296675187884446" lon="44.281823559393594"><ele>3.9999999999999996</ele><time>2026-04-05T13:54:12.999Z</time></trkpt><trkpt lat="-20.29662850312708" lon="44.281766225789"><ele>4.0</ele><time>2026-04-05T13:54:13.999Z</time></trkpt><trkpt lat="-20.296581832714345" lon="44.28170618764693"><ele>4.0</ele><time>2026-04-05T13:54:14.999Z</time></trkpt><trkpt lat="-20.296535026531437" lon="44.28164362286429"><ele>3.9999999999999996</ele><time>2026-04-05T13:54:15.999Z</time></trkpt><trkpt lat="-20.29648063542308" lon="44.281583317033856"><ele>4.0</ele><time>2026-04-05T13:54:16.999Z</time></trkpt><trkpt lat="-20.296423045135317" lon="44.28152203991158"><ele>4.0</ele><time>2026-04-05T13:54:17.999Z</time></trkpt><trkpt lat="-20.296367765651606" lon="44.28145775092932"><ele>4.166666666666666</ele><time>2026-04-05T13:54:18.999Z</time></trkpt><trkpt lat="-20.296311091372104" lon="44.281390124414614"><ele>4.333333333333333</ele><time>2026-04-05T13:54:19.999Z</time></trkpt><trkpt lat="-20.2962529532634" lon="44.281324641963714"><ele>4.5</ele><time>2026-04-05T13:54:20.999Z</time></trkpt><trkpt lat="-20.29619367918337" lon="44.2812594244836"><ele>4.666666666666667</ele><time>2026-04-05T13:54:21.999Z</time></trkpt><trkpt lat="-20.296133937017864" lon="44.281194650833626"><ele>4.833333333333334</ele><time>2026-04-05T13:54:22.999Z</time></trkpt><trkpt lat="-20.296075620469527" lon="44.28112507494287"><ele>5.0</ele><time>2026-04-05T13:54:23.999Z</time></trkpt><trkpt lat="-20.296018191831198" lon="44.281055298939755"><ele>5.0</ele><time>2026-04-05T13:54:24.999Z</time></trkpt><trkpt lat="-20.2959607705491" lon="44.28098710873606"><ele>5.0</ele><time>2026-04-05T13:54:25.999Z</time></trkpt><trkpt lat="-20.295902924540876" lon="44.28091915838941"><ele>5.0</ele><time>2026-04-05T13:54:26.999Z</time></trkpt><trkpt lat="-20.29584465094753" lon="44.28085104449899"><ele>5.0</ele><time>2026-04-05T13:54:27.999Z</time></trkpt><trkpt lat="-20.29578683301434" lon="44.280784070362145"><ele>5.0</ele><time>2026-04-05T13:54:28.999Z</time></trkpt><trkpt lat="-20.295730274468713" lon="44.28071675564728"><ele>5.0</ele><time>2026-04-05T13:54:29.999Z</time></trkpt><trkpt lat="-20.29567215524975" lon="44.28064553731917"><ele>5.0</ele><time>2026-04-05T13:54:30.999Z</time></trkpt><trkpt lat="-20.29561336556732" lon="44.28057171219981"><ele>5.0</ele><time>2026-04-05T13:54:31.999Z</time></trkpt><trkpt lat="-20.295550851960176" lon="44.28049794971711"><ele>5.0</ele><time>2026-04-05T13:54:32.999Z</time></trkpt><trkpt lat="-20.29549236628947" lon="44.280426278539416"><ele>5.0</ele><time>2026-04-05T13:54:33.999Z</time></trkpt><trkpt lat="-20.29543809895325" lon="44.28036292618587"><ele>5.0</ele><time>2026-04-05T13:54:34.999Z</time></trkpt><trkpt lat="-20.295379274145024" lon="44.280299410002726"><ele>5.0</ele><time>2026-04-05T13:54:35.999Z</time></trkpt><trkpt lat="-20.295311712375568" lon="44.280235206585495"><ele>5.0</ele><time>2026-04-05T13:54:36.999Z</time></trkpt><trkpt lat="-20.295248180011157" lon="44.280174677334124"><ele>5.0</ele><time>2026-04-05T13:54:37.999Z</time></trkpt><trkpt lat="-20.29518158117991" lon="44.28011242883522"><ele>5.0</ele><time>2026-04-05T13:54:38.999Z</time></trkpt><trkpt lat="-20.295119863226578" lon="44.280038750815436"><ele>5.0</ele><time>2026-04-05T13:54:39.999Z</time></trkpt><trkpt lat="-20.295057501897215" lon="44.27995979995911"><ele>5.0</ele><time>2026-04-05T13:54:40.999Z</time></trkpt><trkpt lat="-20.294993139849375" lon="44.27987907790572"><ele>5.0</ele><time>2026-04-05T13:54:41.999Z</time></trkpt><trkpt lat="-20.29492453801688" lon="44.27979741888502"><ele>5.0</ele><time>2026-04-05T13:54:42.999Z</time></trkpt><trkpt lat="-20.294852962514756" lon="44.27971533050626"><ele>5.0</ele><time>2026-04-05T13:54:43.999Z</time></trkpt><trkpt lat="-20.29478050240272" lon="44.2796326815476"><ele>5.0</ele><time>2026-04-05T13:54:44.999Z</time></trkpt><trkpt lat="-20.294704791029368" lon="44.27954769780629"><ele>5.0</ele><time>2026-04-05T13:54:45.999Z</time></trkpt><trkpt lat="-20.29463370983271" lon="44.27946366644811"><ele>5.6</ele><time>2026-04-05T13:54:46.999Z</time></trkpt><trkpt lat="-20.29456280857257" lon="44.27938275225621"><ele>6.2</ele><time>2026-04-05T13:54:47.999Z</time></trkpt><trkpt lat="-20.294497021776728" lon="44.2793027636033"><ele>6.800000000000001</ele><time>2026-04-05T13:54:48.999Z</time></trkpt><trkpt lat="-20.294428876115777" lon="44.27922908839902"><ele>7.4</ele><time>2026-04-05T13:54:49.999Z</time></trkpt><trkpt lat="-20.294360468185992" lon="44.279154372050435"><ele>8.0</ele><time>2026-04-05T13:54:50.999Z</time></trkpt><trkpt lat="-20.29429064618922" lon="44.27908302059417"><ele>8.0</ele><time>2026-04-05T13:54:51.999Z</time></trkpt><trkpt lat="-20.294222200061736" lon="44.279009629147076"><ele>8.0</ele><time>2026-04-05T13:54:52.999Z</time></trkpt><trkpt lat="-20.294158488480765" lon="44.27893498622064"><ele>8.0</ele><time>2026-04-05T13:54:53.999Z</time></trkpt><trkpt lat="-20.294100856258932" lon="44.27885939418464"><ele>8.0</ele><time>2026-04-05T13:54:54.999Z</time></trkpt><trkpt lat="-20.294038700544984" lon="44.278785558931666"><ele>8.0</ele><time>2026-04-05T13:54:55.999Z</time></trkpt><trkpt lat="-20.293982500731275" lon="44.27870789037811"><ele>7.4</ele><time>2026-04-05T13:54:56.999Z</time></trkpt><trkpt lat="-20.293923030065056" lon="44.27863346470501"><ele>6.800000000000001</ele><time>2026-04-05T13:54:57.999Z</time></trkpt><trkpt lat="-20.293861165875143" lon="44.278559311950985"><ele>6.2</ele><time>2026-04-05T13:54:58.999Z</time></trkpt><trkpt lat="-20.293796260784244" lon="44.27848460110451"><ele>5.6</ele><time>2026-04-05T13:54:59.999Z</time></trkpt><trkpt lat="-20.293728988170425" lon="44.278410173083614"><ele>5.0</ele><time>2026-04-05T13:55:00.999Z</time></trkpt><trkpt lat="-20.29366209900782" lon="44.278336605724235"><ele>4.8</ele><time>2026-04-05T13:55:01.999Z</time></trkpt><trkpt lat="-20.293597688043725" lon="44.2782596041488"><ele>4.6</ele><time>2026-04-05T13:55:02.999Z</time></trkpt><trkpt lat="-20.293532923346827" lon="44.278181797695034"><ele>4.4</ele><time>2026-04-05T13:55:03.999Z</time></trkpt><trkpt lat="-20.293465451044646" lon="44.27810727466141"><ele>4.2</ele><time>2026-04-05T13:55:04.999Z</time></trkpt><trkpt lat="-20.293393666976918" lon="44.278033999282876"><ele>4.0</ele><time>2026-04-05T13:55:05.999Z</time></trkpt><trkpt lat="-20.293326348646" lon="44.277958685457286"><ele>4.0</ele><time>2026-04-05T13:55:06.999Z</time></trkpt><trkpt lat="-20.29326163212071" lon="44.27787933441446"><ele>4.0</ele><time>2026-04-05T13:55:07.999Z</time></trkpt><trkpt lat="-20.29319837627604" lon="44.27780025551309"><ele>4.0</ele><time>2026-04-05T13:55:08.999Z</time></trkpt><trkpt lat="-20.293139655223047" lon="44.277717779021955"><ele>4.0</ele><time>2026-04-05T13:55:09.999Z</time></trkpt><trkpt lat="-20.29308119007184" lon="44.27763524673461"><ele>4.0</ele><time>2026-04-05T13:55:10.999Z</time></trkpt><trkpt lat="-20.29301558853056" lon="44.27755893092059"><ele>4.0</ele><time>2026-04-05T13:55:11.999Z</time></trkpt><trkpt lat="-20.292947519658153" lon="44.27748690479001"><ele>4.0</ele><time>2026-04-05T13:55:12.999Z</time></trkpt><trkpt lat="-20.292879939131648" lon="44.27741390460267"><ele>4.0</ele><time>2026-04-05T13:55:13.999Z</time></trkpt><trkpt lat="-20.292813165596783" lon="44.277338504899646"><ele>4.0</ele><time>2026-04-05T13:55:14.999Z</time></trkpt><trkpt lat="-20.292748198475252" lon="44.277263879956315"><ele>4.0</ele><time>2026-04-05T13:55:15.999Z</time></trkpt><trkpt lat="-20.292682802745666" lon="44.27719001101467"><ele>4.0</ele><time>2026-04-05T13:55:16.999Z</time></trkpt><trkpt lat="-20.29261855502279" lon="44.277114725918494"><ele>4.0</ele><time>2026-04-05T13:55:17.999Z</time></trkpt><trkpt lat="-20.29255389907093" lon="44.277039959302755"><ele>4.0</ele><time>2026-04-05T13:55:18.999Z</time></trkpt><trkpt lat="-20.29248988028353" lon="44.27696325622293"><ele>4.0</ele><time>2026-04-05T13:55:19.999Z</time></trkpt><trkpt lat="-20.292425596813803" lon="44.276886491011034"><ele>4.0</ele><time>2026-04-05T13:55:20.999Z</time></trkpt><trkpt lat="-20.29236004522301" lon="44.27680980711154"><ele>4.0</ele><time>2026-04-05T13:55:21.999Z</time></trkpt><trkpt lat="-20.292294617326302" lon="44.27673223966568"><ele>4.0</ele><time>2026-04-05T13:55:22.999Z</time></trkpt><trkpt lat="-20.29222947487772" lon="44.27665645112746"><ele>4.0</ele><time>2026-04-05T13:55:23.999Z</time></trkpt><trkpt lat="-20.2921646024327" lon="44.27657889236349"><ele>4.0</ele><time>2026-04-05T13:55:24.999Z</time></trkpt><trkpt lat="-20.292100632960786" lon="44.276502314662395"><ele>4.0</ele><time>2026-04-05T13:55:25.999Z</time></trkpt><trkpt lat="-20.292035256005597" lon="44.276421329703744"><ele>4.0</ele><time>2026-04-05T13:55:26.999Z</time></trkpt><trkpt lat="-20.291964557306514" lon="44.27633176336019"><ele>4.0</ele><time>2026-04-05T13:55:27.999Z</time></trkpt><trkpt lat="-20.291886473642226" lon="44.276242101095576"><ele>4.0</ele><time>2026-04-05T13:55:28.999Z</time></trkpt><trkpt lat="-20.291805423554603" lon="44.27614993488161"><ele>4.0</ele><time>2026-04-05T13:55:29.999Z</time></trkpt><trkpt lat="-20.29172516832681" lon="44.27605570393773"><ele>4.0</ele><time>2026-04-05T13:55:30.999Z</time></trkpt><trkpt lat="-20.29165175718655" lon="44.27596785684671"><ele>4.0</ele><time>2026-04-05T13:55:31.999Z</time></trkpt><trkpt lat="-20.291584122416282" lon="44.275889793473425"><ele>4.0</ele><time>2026-04-05T13:55:32.999Z</time></trkpt><trkpt lat="-20.291522052883856" lon="44.27581946811862"><ele>4.0</ele><time>2026-04-05T13:55:33.999Z</time></trkpt><trkpt lat="-20.291466892050497" lon="44.27574554582503"><ele>4.0</ele><time>2026-04-05T13:55:34.999Z</time></trkpt><trkpt lat="-20.291410302073853" lon="44.27566968964554"><ele>4.4</ele><time>2026-04-05T13:55:35.999Z</time></trkpt><trkpt lat="-20.2913490747992" lon="44.275595832854265"><ele>4.800000000000001</ele><time>2026-04-05T13:55:36.999Z</time></trkpt><trkpt lat="-20.29128476441896" lon="44.27552340748256"><ele>5.199999999999999</ele><time>2026-04-05T13:55:37.999Z</time></trkpt><trkpt lat="-20.29121836172459" lon="44.27544869348551"><ele>5.6</ele><time>2026-04-05T13:55:38.999Z</time></trkpt><trkpt lat="-20.291153236369322" lon="44.27536568025443"><ele>6.0</ele><time>2026-04-05T13:55:39.999Z</time></trkpt><trkpt lat="-20.291094701384743" lon="44.275279830242056"><ele>6.0</ele><time>2026-04-05T13:55:40.999Z</time></trkpt><trkpt lat="-20.291028599428493" lon="44.27519870353927"><ele>6.0</ele><time>2026-04-05T13:55:41.999Z</time></trkpt><trkpt lat="-20.290953892888517" lon="44.27512484319558"><ele>6.0</ele><time>2026-04-05T13:55:42.999Z</time></trkpt><trkpt lat="-20.29088168953806" lon="44.275048839129056"><ele>6.0</ele><time>2026-04-05T13:55:43.999Z</time></trkpt><trkpt lat="-20.290812214117935" lon="44.274971472929295"><ele>6.0</ele><time>2026-04-05T13:55:44.999Z</time></trkpt><trkpt lat="-20.290739741362216" lon="44.2748899197779"><ele>6.0</ele><time>2026-04-05T13:55:45.999Z</time></trkpt><trkpt lat="-20.290675936185256" lon="44.27480534152136"><ele>6.0</ele><time>2026-04-05T13:55:46.999Z</time></trkpt><trkpt lat="-20.29061336004973" lon="44.27474445119512"><ele>6.0</ele><time>2026-04-05T13:55:47.999Z</time></trkpt><trkpt lat="-20.29055957577432" lon="44.274683470928935"><ele>6.0</ele><time>2026-04-05T13:55:48.999Z</time></trkpt><trkpt lat="-20.29051579408526" lon="44.27462392493754"><ele>6.0</ele><time>2026-04-05T13:55:49.999Z</time></trkpt><trkpt lat="-20.29050195230225" lon="44.27455655903256"><ele>6.0</ele><time>2026-04-05T13:55:50.999Z</time></trkpt><trkpt lat="-20.29052580568266" lon="44.27447661333863"><ele>5.833333333333333</ele><time>2026-04-05T13:55:51.999Z</time></trkpt><trkpt lat="-20.290564931916744" lon="44.27440683950557"><ele>5.666666666666667</ele><time>2026-04-05T13:55:52.999Z</time></trkpt><trkpt lat="-20.290621885135653" lon="44.274352229447494"><ele>5.5</ele><time>2026-04-05T13:55:53.999Z</time></trkpt><trkpt lat="-20.290687100904588" lon="44.27430551530429"><ele>5.333333333333334</ele><time>2026-04-05T13:55:54.999Z</time></trkpt><trkpt lat="-20.290749548108764" lon="44.27425124870545"><ele>5.166666666666667</ele><time>2026-04-05T13:55:55.999Z</time></trkpt><trkpt lat="-20.290814251432533" lon="44.27419205611634"><ele>5.0</ele><time>2026-04-05T13:55:56.999Z</time></trkpt><trkpt lat="-20.290872971214295" lon="44.27413166180715"><ele>4.833333333333334</ele><time>2026-04-05T13:55:57.999Z</time></trkpt><trkpt lat="-20.290923429042724" lon="44.27406778327805"><ele>4.666666666666667</ele><time>2026-04-05T13:55:58.999Z</time></trkpt><trkpt lat="-20.290981458756804" lon="44.27400951425427"><ele>4.5</ele><time>2026-04-05T13:55:59.999Z</time></trkpt><trkpt lat="-20.291045000692414" lon="44.2739547205457"><ele>4.333333333333333</ele><time>2026-04-05T13:56:00.999Z</time></trkpt><trkpt lat="-20.29110929624882" lon="44.27390217253685"><ele>4.166666666666666</ele><time>2026-04-05T13:56:01.999Z</time></trkpt><trkpt lat="-20.291169815506482" lon="44.27384456470385"><ele>4.0</ele><time>2026-04-05T13:56:02.999Z</time></trkpt><trkpt lat="-20.291230096348073" lon="44.27378156782064"><ele>3.9999999999999996</ele><time>2026-04-05T13:56:03.999Z</time></trkpt><trkpt lat="-20.291289747857775" lon="44.27371892498849"><ele>4.0</ele><time>2026-04-05T13:56:04.999Z</time></trkpt><trkpt lat="-20.2913548934877" lon="44.27366146487674"><ele>4.0</ele><time>2026-04-05T13:56:05.999Z</time></trkpt><trkpt lat="-20.291420582315638" lon="44.27360813171237"><ele>4.0</ele><time>2026-04-05T13:56:06.999Z</time></trkpt><trkpt lat="-20.29148407841464" lon="44.273552063538105"><ele>3.9999999999999996</ele><time>2026-04-05T13:56:07.999Z</time></trkpt><trkpt lat="-20.29154499725633" lon="44.27349571590763"><ele>4.0</ele><time>2026-04-05T13:56:08.999Z</time></trkpt><trkpt lat="-20.2916002154878" lon="44.27343511522594"><ele>3.9999999999999996</ele><time>2026-04-05T13:56:09.999Z</time></trkpt><trkpt lat="-20.291661232515594" lon="44.27338502837035"><ele>4.0</ele><time>2026-04-05T13:56:10.999Z</time></trkpt><trkpt lat="-20.291722670850906" lon="44.27333323644931"><ele>4.0</ele><time>2026-04-05T13:56:11.999Z</time></trkpt><trkpt lat="-20.291785499175152" lon="44.273269198748025"><ele>4.0</ele><time>2026-04-05T13:56:12.999Z</time></trkpt><trkpt lat="-20.291849458156893" lon="44.2731977301019"><ele>3.9999999999999996</ele><time>2026-04-05T13:56:13.999Z</time></trkpt><trkpt lat="-20.29191857850295" lon="44.27312791726654"><ele>4.0</ele><time>2026-04-05T13:56:14.999Z</time></trkpt><trkpt lat="-20.291989176516285" lon="44.273057991893715"><ele>4.0</ele><time>2026-04-05T13:56:15.999Z</time></trkpt><trkpt lat="-20.292059506748807" lon="44.27298741106079"><ele>4.0</ele><time>2026-04-05T13:56:16.999Z</time></trkpt><trkpt lat="-20.292131600127483" lon="44.27291803635122"><ele>4.0</ele><time>2026-04-05T13:56:17.999Z</time></trkpt><trkpt lat="-20.292203335827214" lon="44.272849342884776"><ele>4.0</ele><time>2026-04-05T13:56:18.999Z</time></trkpt><trkpt lat="-20.29227649733953" lon="44.27278002102775"><ele>4.0</ele><time>2026-04-05T13:56:19.999Z</time></trkpt><trkpt lat="-20.292347829204868" lon="44.27271070753043"><ele>3.9999999999999996</ele><time>2026-04-05T13:56:20.999Z</time></trkpt><trkpt lat="-20.292419438094274" lon="44.272641070938775"><ele>4.0</ele><time>2026-04-05T13:56:21.999Z</time></trkpt><trkpt lat="-20.292487676572282" lon="44.2725748029459"><ele>4.0</ele><time>2026-04-05T13:56:22.999Z</time></trkpt><trkpt lat="-20.292548765512386" lon="44.27251616450211"><ele>4.0</ele><time>2026-04-05T13:56:23.999Z</time></trkpt><trkpt lat="-20.292613124736437" lon="44.27245830246438"><ele>3.9999999999999996</ele><time>2026-04-05T13:56:24.999Z</time></trkpt><trkpt lat="-20.292676237168003" lon="44.27240198322241"><ele>4.0</ele><time>2026-04-05T13:56:25.999Z</time></trkpt><trkpt lat="-20.29273869604142" lon="44.27234626661935"><ele>3.9999999999999996</ele><time>2026-04-05T13:56:26.999Z</time></trkpt><trkpt lat="-20.29279789656657" lon="44.27228646550069"><ele>4.0</ele><time>2026-04-05T13:56:27.999Z</time></trkpt><trkpt lat="-20.29285696317674" lon="44.272234777782124"><ele>4.0</ele><time>2026-04-05T13:56:28.999Z</time></trkpt><trkpt lat="-20.292906242323877" lon="44.27218452700837"><ele>4.0</ele><time>2026-04-05T13:56:29.999Z</time></trkpt><trkpt lat="-20.292950258809622" lon="44.272131701919605"><ele>3.9999999999999996</ele><time>2026-04-05T13:56:30.999Z</time></trkpt><trkpt lat="-20.29297156029996" lon="44.272036728688036"><ele>4.0</ele><time>2026-04-05T13:56:32.999Z</time></trkpt><trkpt lat="-20.29294321833743" lon="44.271946587670286"><ele>4.2</ele><time>2026-04-05T13:56:34.999Z</time></trkpt><trkpt lat="-20.292927672175097" lon="44.271857427410396"><ele>4.4</ele><time>2026-04-05T13:56:36.999Z</time></trkpt><trkpt lat="-20.292914172356394" lon="44.271728743294936"><ele>4.6</ele><time>2026-04-05T13:56:38.999Z</time></trkpt><trkpt lat="-20.292899168921952" lon="44.27160393518932"><ele>4.8</ele><time>2026-04-05T13:56:40.999Z</time></trkpt><trkpt lat="-20.292891552846676" lon="44.271482748740624"><ele>5.0</ele><time>2026-04-05T13:56:42.999Z</time></trkpt><trkpt lat="-20.292875537132936" lon="44.271364179421916"><ele>4.666666666666667</ele><time>2026-04-05T13:56:44.999Z</time></trkpt><trkpt lat="-20.292877440101034" lon="44.27125458811229"><ele>4.333333333333334</ele><time>2026-04-05T13:56:46.999Z</time></trkpt><trkpt lat="-20.29287300008982" lon="44.2711122022528"><ele>4.0</ele><time>2026-04-05T13:56:48.999Z</time></trkpt><trkpt lat="-20.29287151483343" lon="44.27103576791588"><ele>3.666666666666667</ele><time>2026-04-05T13:56:49.999Z</time></trkpt><trkpt lat="-20.29287466605272" lon="44.2709587385943"><ele>3.3333333333333335</ele><time>2026-04-05T13:56:50.999Z</time></trkpt><trkpt lat="-20.292894143229" lon="44.27088830245217"><ele>3.0</ele><time>2026-04-05T13:56:51.999Z</time></trkpt><trkpt lat="-20.29292379430928" lon="44.270821062439644"><ele>3.0</ele><time>2026-04-05T13:56:52.999Z</time></trkpt><trkpt lat="-20.2929574465608" lon="44.27075550863153"><ele>3.0</ele><time>2026-04-05T13:56:53.999Z</time></trkpt><trkpt lat="-20.29299108275482" lon="44.2706887542913"><ele>3.0</ele><time>2026-04-05T13:56:54.999Z</time></trkpt><trkpt lat="-20.293029505153758" lon="44.27062693614863"><ele>3.0</ele><time>2026-04-05T13:56:55.999Z</time></trkpt><trkpt lat="-20.293067662515664" lon="44.270565796454946"><ele>3.0</ele><time>2026-04-05T13:56:56.999Z</time></trkpt><trkpt lat="-20.293106743189707" lon="44.27051166133388"><ele>3.0</ele><time>2026-04-05T13:56:57.999Z</time></trkpt><trkpt lat="-20.293181635054584" lon="44.27042963039941"><ele>3.0</ele><time>2026-04-05T13:56:59.999Z</time></trkpt><trkpt lat="-20.29324840217527" lon="44.27036809660275"><ele>3.0</ele><time>2026-04-05T13:57:01.999Z</time></trkpt><trkpt lat="-20.29333296209277" lon="44.27032168475431"><ele>3.0</ele><time>2026-04-05T13:57:03.999Z</time></trkpt><trkpt lat="-20.29344618055191" lon="44.27027977268192"><ele>3.0</ele><time>2026-04-05T13:57:05.999Z</time></trkpt><trkpt lat="-20.293537270752143" lon="44.270243558215675"><ele>3.0</ele><time>2026-04-05T13:57:07.999Z</time></trkpt><trkpt lat="-20.293627449257446" lon="44.270209899679834"><ele>3.0</ele><time>2026-04-05T13:57:09.999Z</time></trkpt><trkpt lat="-20.293730414266047" lon="44.27017809504339"><ele>3.0</ele><time>2026-04-05T13:57:11.999Z</time></trkpt><trkpt lat="-20.293834835492074" lon="44.27015293089021"><ele>3.0</ele><time>2026-04-05T13:57:13.999Z</time></trkpt><trkpt lat="-20.29391567577053" lon="44.27012086004393"><ele>3.0</ele><time>2026-04-05T13:57:15.999Z</time></trkpt><trkpt lat="-20.293992948193907" lon="44.27009320925442"><ele>3.0</ele><time>2026-04-05T13:57:17.999Z</time></trkpt><trkpt lat="-20.294103567778414" lon="44.27002520470076"><ele>3.1428571428571423</ele><time>2026-04-05T13:57:19.999Z</time></trkpt><trkpt lat="-20.294165101635393" lon="44.269994568016315"><ele>3.2857142857142856</ele><time>2026-04-05T13:57:20.999Z</time></trkpt><trkpt lat="-20.294229886568086" lon="44.269974901906316"><ele>3.4285714285714284</ele><time>2026-04-05T13:57:21.999Z</time></trkpt><trkpt lat="-20.2943095555075" lon="44.269954604255915"><ele>3.571428571428571</ele><time>2026-04-05T13:57:22.999Z</time></trkpt><trkpt lat="-20.29438303481836" lon="44.26992081018862"><ele>3.714285714285714</ele><time>2026-04-05T13:57:23.999Z</time></trkpt><trkpt lat="-20.29444852991385" lon="44.26989037337028"><ele>3.8571428571428568</ele><time>2026-04-05T13:57:24.999Z</time></trkpt><trkpt lat="-20.294511906988557" lon="44.2698662545889"><ele>4.0</ele><time>2026-04-05T13:57:25.999Z</time></trkpt><trkpt lat="-20.29457827953034" lon="44.26985246689199"><ele>3.9999999999999996</ele><time>2026-04-05T13:57:26.999Z</time></trkpt><trkpt lat="-20.294645388112855" lon="44.269840902946896"><ele>4.0</ele><time>2026-04-05T13:57:27.999Z</time></trkpt><trkpt lat="-20.29471718767986" lon="44.269826584543694"><ele>4.0</ele><time>2026-04-05T13:57:28.999Z</time></trkpt><trkpt lat="-20.294783373991343" lon="44.269809378486734"><ele>4.0</ele><time>2026-04-05T13:57:29.999Z</time></trkpt><trkpt lat="-20.294895671548527" lon="44.26978376055908"><ele>3.9999999999999996</ele><time>2026-04-05T13:57:31.999Z</time></trkpt><trkpt lat="-20.295001752384948" lon="44.269747843639855"><ele>4.0</ele><time>2026-04-05T13:57:33.999Z</time></trkpt><trkpt lat="-20.29506344217812" lon="44.26971990693565"><ele>3.9999999999999996</ele><time>2026-04-05T13:57:34.999Z</time></trkpt><trkpt lat="-20.295137404548335" lon="44.269696605143345"><ele>4.0</ele><time>2026-04-05T13:57:35.999Z</time></trkpt><trkpt lat="-20.295210141525295" lon="44.269668222443"><ele>4.0</ele><time>2026-04-05T13:57:36.999Z</time></trkpt><trkpt lat="-20.29528093170875" lon="44.26963466394518"><ele>4.0</ele><time>2026-04-05T13:57:37.999Z</time></trkpt><trkpt lat="-20.295340286426292" lon="44.26960270163757"><ele>3.9999999999999996</ele><time>2026-04-05T13:57:38.999Z</time></trkpt><trkpt lat="-20.295399669262356" lon="44.269571214301294"><ele>4.0</ele><time>2026-04-05T13:57:39.999Z</time></trkpt><trkpt lat="-20.295488041317203" lon="44.26950116690002"><ele>3.9999999999999996</ele><time>2026-04-05T13:57:41.999Z</time></trkpt><trkpt lat="-20.295579217591538" lon="44.269438053968685"><ele>4.0</ele><time>2026-04-05T13:57:43.999Z</time></trkpt><trkpt lat="-20.2956896992308" lon="44.26936723187699"><ele>4.0</ele><time>2026-04-05T13:57:45.999Z</time></trkpt><trkpt lat="-20.295743701141888" lon="44.269328096817226"><ele>4.0</ele><time>2026-04-05T13:57:46.999Z</time></trkpt><trkpt lat="-20.295803131062158" lon="44.26929583427625"><ele>3.9999999999999996</ele><time>2026-04-05T13:57:47.999Z</time></trkpt><trkpt lat="-20.295864898034644" lon="44.26926170746102"><ele>4.0</ele><time>2026-04-05T13:57:48.999Z</time></trkpt><trkpt lat="-20.295933986512875" lon="44.269235253532614"><ele>3.9999999999999996</ele><time>2026-04-05T13:57:49.999Z</time></trkpt><trkpt lat="-20.29601022751844" lon="44.26923047422367"><ele>4.0</ele><time>2026-04-05T13:57:50.999Z</time></trkpt><trkpt lat="-20.29608609746816" lon="44.26923427448348"><ele>4.0</ele><time>2026-04-05T13:57:51.999Z</time></trkpt><trkpt lat="-20.296163669727328" lon="44.26924871591658"><ele>4.0</ele><time>2026-04-05T13:57:52.999Z</time></trkpt><trkpt lat="-20.296239079825323" lon="44.26927825661262"><ele>3.9999999999999996</ele><time>2026-04-05T13:57:53.999Z</time></trkpt><trkpt lat="-20.296313045618017" lon="44.2693098116167"><ele>4.0</ele><time>2026-04-05T13:57:54.999Z</time></trkpt><trkpt lat="-20.296385250263537" lon="44.269336893431216"><ele>4.2</ele><time>2026-04-05T13:57:55.999Z</time></trkpt><trkpt lat="-20.29644732471611" lon="44.26936355843787"><ele>4.4</ele><time>2026-04-05T13:57:56.999Z</time></trkpt><trkpt lat="-20.296557698141317" lon="44.269412322706565"><ele>4.6</ele><time>2026-04-05T13:57:58.999Z</time></trkpt><trkpt lat="-20.296658110289002" lon="44.2694591686433"><ele>4.8</ele><time>2026-04-05T13:58:00.999Z</time></trkpt><trkpt lat="-20.296783763831836" lon="44.26949457482398"><ele>5.0</ele><time>2026-04-05T13:58:02.999Z</time></trkpt><trkpt lat="-20.2968527194423" lon="44.26950180037708"><ele>5.0</ele><time>2026-04-05T13:58:03.999Z</time></trkpt><trkpt lat="-20.29692380654626" lon="44.26949582122128"><ele>5.0</ele><time>2026-04-05T13:58:04.999Z</time></trkpt><trkpt lat="-20.2969920832391" lon="44.26948478066249"><ele>5.0</ele><time>2026-04-05T13:58:05.999Z</time></trkpt><trkpt lat="-20.297083654694557" lon="44.26946976464788"><ele>5.0</ele><time>2026-04-05T13:58:07.999Z</time></trkpt><trkpt lat="-20.297187460226635" lon="44.269458618689086"><ele>5.0</ele><time>2026-04-05T13:58:09.999Z</time></trkpt><trkpt lat="-20.297304399662657" lon="44.26945218920719"><ele>5.0</ele><time>2026-04-05T13:58:11.999Z</time></trkpt><trkpt lat="-20.297422756045542" lon="44.269437994843436"><ele>5.0</ele><time>2026-04-05T13:58:13.999Z</time></trkpt><trkpt lat="-20.297523322166086" lon="44.26942870312901"><ele>5.0</ele><time>2026-04-05T13:58:15.999Z</time></trkpt><trkpt lat="-20.297589235993176" lon="44.269424547241655"><ele>5.0</ele><time>2026-04-05T13:58:19.999Z</time></trkpt><trkpt lat="-20.29767155942222" lon="44.26941174081928"><ele>5.0</ele><time>2026-04-05T13:58:23.999Z</time></trkpt><trkpt lat="-20.297754348259456" lon="44.269405855913504"><ele>5.0</ele><time>2026-04-05T13:58:25.999Z</time></trkpt><trkpt lat="-20.297843593299973" lon="44.269410588721804"><ele>5.0</ele><time>2026-04-05T13:58:27.999Z</time></trkpt><trkpt lat="-20.297909452844802" lon="44.269395518742634"><ele>5.0</ele><time>2026-04-05T13:58:30.999Z</time></trkpt><trkpt lat="-20.297908535247224" lon="44.269327715044966"><ele>5.0</ele><time>2026-04-05T13:58:34.999Z</time></trkpt><trkpt lat="-20.29790519083664" lon="44.269255046627"><ele>5.0</ele><time>2026-04-05T13:58:36.999Z</time></trkpt><trkpt lat="-20.297883372137807" lon="44.26917575667421"><ele>5.0</ele><time>2026-04-05T13:58:37.999Z</time></trkpt><trkpt lat="-20.29786576680615" lon="44.26908101346787"><ele>5.0</ele><time>2026-04-05T13:58:39.999Z</time></trkpt><trkpt lat="-20.29786005602919" lon="44.26900288298562"><ele>5.0</ele><time>2026-04-05T13:58:42.999Z</time></trkpt><trkpt lat="-20.297908037536377" lon="44.26895454156407"><ele>5.0</ele><time>2026-04-05T13:59:00.999Z</time></trkpt></trkseg></trk></gpx>